ANA108 RJTT-KSFO
Flight info
| Callsign | ANA108 |
|---|---|
| Flight time | N/A |
| Altitude | 35000 |
| Route | OPPAR UTIBO Y803 POROT Y809 IDLAN Y812 ADNAP OTR7 EMRON 42N160E 43N170E 43N180E 43N170W 44N160W/N0485F370 44N150W 43N140W 41N130W DCT TRYSH DCT AMAKR BDEGA4 |
| Aircraft | B77W/H-SDE1E2E3FGHIJ2J3J4J5M1RWXY/LB1D1 |
Departure
| Time | 2026-05-05 06:00 |
|---|---|
| Airport | Tokyo Haneda International Airport (RJTT) |
Arrival
| Time | N/A |
|---|---|
| Airport | San Francisco International Airport (KSFO) |
| Time | Latitude | Longitude | Altitude | Speed | Heading |
|---|---|---|---|---|---|
| 2026-05-05 05:18 | 35.55246 | 139.78056 | 29 ft | 0 kts | 152° |
| 2026-05-05 05:51 | 35.55250 | 139.78053 | 42 ft | 4 kts | 152° |
| 2026-05-05 05:51 | 35.55271 | 139.78039 | 27 ft | 3 kts | 152° |
| 2026-05-05 05:51 | 35.55293 | 139.78031 | 27 ft | 4 kts | 204° |
| 2026-05-05 05:52 | 35.55310 | 139.78052 | 29 ft | 4 kts | 244° |
| 2026-05-05 05:52 | 35.55321 | 139.78082 | 27 ft | 4 kts | 240° |
| 2026-05-05 05:52 | 35.55314 | 139.78068 | 27 ft | 4 kts | 240° |
| 2026-05-05 05:52 | 35.55301 | 139.78040 | 28 ft | 3 kts | 240° |
| 2026-05-05 05:53 | 35.55299 | 139.78036 | 28 ft | 0 kts | 240° |
| 2026-05-05 05:55 | 35.55275 | 139.77985 | 29 ft | 16 kts | 240° |
| 2026-05-05 05:56 | 35.55235 | 139.77890 | 29 ft | 10 kts | 256° |
| 2026-05-05 05:56 | 35.55240 | 139.77805 | 29 ft | 11 kts | 264° |
| 2026-05-05 05:56 | 35.55243 | 139.77707 | 28 ft | 12 kts | 302° |
| 2026-05-05 05:56 | 35.55319 | 139.77645 | 28 ft | 14 kts | 328° |
| 2026-05-05 05:57 | 35.55408 | 139.77580 | 28 ft | 16 kts | 329° |
| 2026-05-05 05:57 | 35.55510 | 139.77510 | 28 ft | 17 kts | 331° |
| 2026-05-05 05:57 | 35.55618 | 139.77433 | 28 ft | 19 kts | 329° |
| 2026-05-05 05:57 | 35.55729 | 139.77352 | 28 ft | 14 kts | 329° |
| 2026-05-05 05:58 | 35.55817 | 139.77286 | 26 ft | 15 kts | 316° |
| 2026-05-05 05:58 | 35.55803 | 139.77172 | 28 ft | 16 kts | 223° |
| 2026-05-05 05:58 | 35.55707 | 139.77123 | 29 ft | 16 kts | 167° |
| 2026-05-05 05:58 | 35.55659 | 139.77150 | 29 ft | 0 kts | 149° |
| 2026-05-05 05:59 | 35.55540 | 139.77234 | 29 ft | 55 kts | 150° |
| 2026-05-05 05:59 | 35.54986 | 139.77625 | 30 ft | 126 kts | 150° |
| 2026-05-05 05:59 | 35.54048 | 139.78292 | 38 ft | 180 kts | 150° |
| 2026-05-05 05:59 | 35.52922 | 139.79046 | 501 ft | 190 kts | 152° |
| 2026-05-05 06:00 | 35.51702 | 139.79874 | 898 ft | 205 kts | 150° |
| 2026-05-05 06:00 | 35.50456 | 139.80773 | 1572 ft | 210 kts | 150° |
| 2026-05-05 06:00 | 35.49167 | 139.81695 | 1965 ft | 228 kts | 151° |
| 2026-05-05 06:00 | 35.47728 | 139.82716 | 2288 ft | 245 kts | 151° |
| 2026-05-05 06:01 | 35.46235 | 139.83771 | 2955 ft | 251 kts | 151° |
| 2026-05-05 06:01 | 35.44629 | 139.84571 | 3522 ft | 253 kts | 175° |
| 2026-05-05 06:01 | 35.42888 | 139.84265 | 4158 ft | 254 kts | 199° |
| 2026-05-05 06:01 | 35.41214 | 139.83501 | 4818 ft | 258 kts | 199° |
| 2026-05-05 06:02 | 35.39523 | 139.82749 | 5572 ft | 259 kts | 200° |
| 2026-05-05 06:02 | 35.37808 | 139.81982 | 6177 ft | 267 kts | 201° |
| 2026-05-05 06:02 | 35.36036 | 139.81217 | 6722 ft | 272 kts | 195° |
| 2026-05-05 06:02 | 35.34139 | 139.81138 | 7130 ft | 279 kts | 171° |
| 2026-05-05 06:03 | 35.32865 | 139.81444 | 7452 ft | 284 kts | 170° |
| 2026-05-05 06:03 | 35.30906 | 139.81889 | 8044 ft | 289 kts | 171° |
| 2026-05-05 06:03 | 35.28249 | 139.82464 | 8748 ft | 299 kts | 171° |
| 2026-05-05 06:03 | 35.26192 | 139.82903 | 9411 ft | 300 kts | 171° |
| 2026-05-05 06:04 | 35.24793 | 139.83200 | 9855 ft | 303 kts | 171° |
| 2026-05-05 06:04 | 35.22727 | 139.83637 | 10362 ft | 310 kts | 172° |
| 2026-05-05 06:04 | 35.20503 | 139.84104 | 10534 ft | 331 kts | 172° |
| 2026-05-05 06:04 | 35.18191 | 139.84587 | 10709 ft | 352 kts | 172° |
| 2026-05-05 06:05 | 35.15695 | 139.85110 | 10888 ft | 374 kts | 172° |
| 2026-05-05 06:05 | 35.13083 | 139.85656 | 11257 ft | 387 kts | 172° |
| 2026-05-05 06:05 | 35.10393 | 139.86219 | 11868 ft | 395 kts | 172° |
| 2026-05-05 06:05 | 35.07658 | 139.86796 | 12626 ft | 400 kts | 172° |
| 2026-05-05 06:06 | 35.04902 | 139.87380 | 13435 ft | 405 kts | 172° |
| 2026-05-05 06:06 | 35.02131 | 139.88076 | 14082 ft | 409 kts | 163° |
| 2026-05-05 06:06 | 34.99607 | 139.89773 | 14625 ft | 422 kts | 140° |
| 2026-05-05 06:06 | 34.97715 | 139.92522 | 15350 ft | 427 kts | 119° |
| 2026-05-05 06:07 | 34.96654 | 139.95889 | 16128 ft | 428 kts | 100° |
| 2026-05-05 06:07 | 34.96477 | 139.99499 | 16850 ft | 429 kts | 81° |
| 2026-05-05 06:07 | 34.97099 | 140.02997 | 17387 ft | 430 kts | 73° |
| 2026-05-05 06:07 | 34.97844 | 140.06562 | 17938 ft | 438 kts | 73° |
| 2026-05-05 06:08 | 34.98594 | 140.10188 | 18627 ft | 443 kts | 73° |
| 2026-05-05 06:08 | 34.99338 | 140.13860 | 19222 ft | 448 kts | 74° |
| 2026-05-05 06:08 | 35.00078 | 140.17587 | 19674 ft | 457 kts | 75° |
| 2026-05-05 06:08 | 35.00823 | 140.21400 | 20142 ft | 466 kts | 75° |
| 2026-05-05 06:09 | 35.01573 | 140.25280 | 20599 ft | 474 kts | 75° |
| 2026-05-05 06:09 | 35.02331 | 140.29233 | 21096 ft | 481 kts | 75° |
| 2026-05-05 06:09 | 35.03095 | 140.33224 | 21597 ft | 487 kts | 76° |
| 2026-05-05 06:09 | 35.03871 | 140.37288 | 22084 ft | 494 kts | 76° |
| 2026-05-05 06:10 | 35.04646 | 140.41351 | 22536 ft | 501 kts | 76° |
| 2026-05-05 06:10 | 35.05441 | 140.45526 | 22984 ft | 508 kts | 76° |
| 2026-05-05 06:10 | 35.06247 | 140.49758 | 23422 ft | 516 kts | 76° |
| 2026-05-05 06:10 | 35.07064 | 140.54050 | 23864 ft | 522 kts | 76° |
| 2026-05-05 06:11 | 35.08037 | 140.58339 | 24241 ft | 527 kts | 70° |
| 2026-05-05 06:11 | 35.09355 | 140.62547 | 24637 ft | 531 kts | 66° |
| 2026-05-05 06:11 | 35.10781 | 140.66727 | 25027 ft | 536 kts | 65° |
| 2026-05-05 06:11 | 35.12237 | 140.70955 | 25409 ft | 542 kts | 65° |
| 2026-05-05 06:12 | 35.13702 | 140.75226 | 25756 ft | 547 kts | 66° |
| 2026-05-05 06:12 | 35.15169 | 140.79544 | 26111 ft | 553 kts | 66° |
| 2026-05-05 06:12 | 35.16619 | 140.83859 | 26463 ft | 558 kts | 66° |
| 2026-05-05 06:12 | 35.18092 | 140.88276 | 26816 ft | 563 kts | 67° |
| 2026-05-05 06:13 | 35.19572 | 140.92741 | 27121 ft | 569 kts | 67° |
| 2026-05-05 06:13 | 35.21062 | 140.97248 | 27435 ft | 575 kts | 67° |
| 2026-05-05 06:13 | 35.22568 | 141.01806 | 27755 ft | 580 kts | 67° |
| 2026-05-05 06:13 | 35.24081 | 141.06395 | 28075 ft | 584 kts | 67° |
| 2026-05-05 06:14 | 35.25607 | 141.11025 | 28382 ft | 589 kts | 67° |
| 2026-05-05 06:14 | 35.27143 | 141.15687 | 28660 ft | 594 kts | 67° |
| 2026-05-05 06:14 | 35.28697 | 141.20412 | 28927 ft | 599 kts | 68° |
| 2026-05-05 06:14 | 35.30255 | 141.25154 | 29195 ft | 603 kts | 68° |
| 2026-05-05 06:15 | 35.31804 | 141.29879 | 29466 ft | 607 kts | 68° |
| 2026-05-05 06:15 | 35.33382 | 141.34698 | 29768 ft | 610 kts | 68° |
| 2026-05-05 06:15 | 35.34962 | 141.39529 | 30146 ft | 611 kts | 68° |
| 2026-05-05 06:15 | 35.36541 | 141.44369 | 30513 ft | 612 kts | 68° |
| 2026-05-05 06:16 | 35.38115 | 141.49202 | 30903 ft | 611 kts | 68° |
| 2026-05-05 06:16 | 35.39690 | 141.54042 | 31330 ft | 610 kts | 68° |
| 2026-05-05 06:16 | 35.41259 | 141.58873 | 31758 ft | 608 kts | 68° |
| 2026-05-05 06:16 | 35.42817 | 141.63678 | 32145 ft | 607 kts | 68° |
| 2026-05-05 06:17 | 35.44373 | 141.68485 | 32503 ft | 607 kts | 68° |
| 2026-05-05 06:17 | 35.45936 | 141.73322 | 32859 ft | 607 kts | 68° |
| 2026-05-05 06:17 | 35.47487 | 141.78130 | 33176 ft | 607 kts | 68° |
| 2026-05-05 06:17 | 35.49045 | 141.82963 | 33246 ft | 611 kts | 68° |
| 2026-05-05 06:18 | 35.52145 | 141.92609 | 33231 ft | 609 kts | 68° |
| 2026-05-05 06:18 | 35.55235 | 142.02258 | 33193 ft | 606 kts | 68° |
| 2026-05-05 06:19 | 35.58312 | 142.11895 | 33233 ft | 604 kts | 68° |
| 2026-05-05 06:19 | 35.61370 | 142.21504 | 33235 ft | 603 kts | 68° |
| 2026-05-05 06:20 | 35.64420 | 142.31117 | 33254 ft | 603 kts | 68° |
| 2026-05-05 06:20 | 35.67448 | 142.40695 | 33250 ft | 606 kts | 69° |
| 2026-05-05 06:21 | 35.70505 | 142.50397 | 33248 ft | 608 kts | 69° |
| 2026-05-05 06:21 | 35.73559 | 142.60120 | 33233 ft | 611 kts | 69° |
| 2026-05-05 06:22 | 35.76617 | 142.69888 | 33235 ft | 612 kts | 69° |
| 2026-05-05 06:22 | 35.79672 | 142.79682 | 33246 ft | 612 kts | 69° |
| 2026-05-05 06:23 | 35.82719 | 142.89481 | 33241 ft | 613 kts | 69° |
| 2026-05-05 06:23 | 35.85761 | 142.99297 | 33243 ft | 612 kts | 69° |
| 2026-05-05 06:24 | 35.88790 | 143.09108 | 33238 ft | 612 kts | 69° |
| 2026-05-05 06:24 | 35.91744 | 143.18869 | 33243 ft | 612 kts | 72° |
| 2026-05-05 06:25 | 35.93799 | 143.29033 | 33245 ft | 608 kts | 85° |
| 2026-05-05 06:25 | 35.94745 | 143.39375 | 33243 ft | 606 kts | 88° |
| 2026-05-05 06:26 | 35.95732 | 143.49726 | 33246 ft | 607 kts | 86° |
| 2026-05-05 06:26 | 35.96802 | 143.60090 | 33252 ft | 609 kts | 86° |
| 2026-05-05 06:27 | 35.98373 | 143.75692 | 33269 ft | 611 kts | 87° |
| 2026-05-05 06:28 | 35.99401 | 143.86043 | 33231 ft | 610 kts | 87° |
| 2026-05-05 06:28 | 36.00427 | 143.96446 | 33234 ft | 610 kts | 87° |
| 2026-05-05 06:29 | 36.02215 | 144.06688 | 33224 ft | 615 kts | 68° |
| 2026-05-05 06:29 | 36.06359 | 144.15876 | 33245 ft | 609 kts | 48° |
| 2026-05-05 06:30 | 36.12110 | 144.23411 | 33257 ft | 601 kts | 39° |
| 2026-05-05 06:30 | 36.18000 | 144.30810 | 33288 ft | 606 kts | 40° |
| 2026-05-05 06:31 | 36.23858 | 144.38388 | 33255 ft | 610 kts | 41° |
| 2026-05-05 06:31 | 36.29687 | 144.46065 | 33251 ft | 612 kts | 41° |
| 2026-05-05 06:32 | 36.35480 | 144.53722 | 33249 ft | 613 kts | 41° |
| 2026-05-05 06:32 | 36.41337 | 144.61454 | 33241 ft | 613 kts | 41° |
| 2026-05-05 06:33 | 36.47188 | 144.69186 | 33244 ft | 613 kts | 41° |
| 2026-05-05 06:33 | 36.53025 | 144.76917 | 33303 ft | 613 kts | 41° |
| 2026-05-05 06:34 | 36.58826 | 144.84620 | 33243 ft | 614 kts | 41° |
| 2026-05-05 06:34 | 36.64663 | 144.92393 | 33240 ft | 613 kts | 41° |
| 2026-05-05 06:35 | 36.70478 | 145.00154 | 33241 ft | 612 kts | 41° |
| 2026-05-05 06:35 | 36.76291 | 145.07929 | 33246 ft | 612 kts | 41° |
| 2026-05-05 06:36 | 36.82077 | 145.15687 | 33241 ft | 613 kts | 41° |
| 2026-05-05 06:36 | 36.87877 | 145.23483 | 33241 ft | 613 kts | 41° |
| 2026-05-05 06:37 | 36.93678 | 145.31299 | 33240 ft | 613 kts | 41° |
| 2026-05-05 06:37 | 36.99475 | 145.39129 | 33240 ft | 613 kts | 41° |
| 2026-05-05 06:38 | 37.05268 | 145.46973 | 33236 ft | 613 kts | 42° |
| 2026-05-05 06:38 | 37.11014 | 145.54772 | 33243 ft | 612 kts | 42° |
| 2026-05-05 06:39 | 37.16608 | 145.62865 | 33218 ft | 618 kts | 52° |
| 2026-05-05 06:39 | 37.20856 | 145.72263 | 33242 ft | 621 kts | 66° |
| 2026-05-05 06:40 | 37.23565 | 145.82527 | 33250 ft | 619 kts | 77° |
| 2026-05-05 06:40 | 37.25805 | 145.92973 | 33228 ft | 620 kts | 77° |
| 2026-05-05 06:41 | 37.28100 | 146.03430 | 33236 ft | 620 kts | 77° |
| 2026-05-05 06:41 | 37.30461 | 146.13872 | 33227 ft | 622 kts | 77° |
| 2026-05-05 06:42 | 37.32820 | 146.24254 | 33233 ft | 623 kts | 77° |
| 2026-05-05 06:42 | 37.35190 | 146.34758 | 33211 ft | 624 kts | 77° |
| 2026-05-05 06:43 | 37.37541 | 146.45274 | 33239 ft | 625 kts | 78° |
| 2026-05-05 06:43 | 37.39887 | 146.55827 | 33223 ft | 627 kts | 78° |
| 2026-05-05 06:44 | 37.42218 | 146.66355 | 33226 ft | 628 kts | 78° |
| 2026-05-05 06:44 | 37.44555 | 146.76950 | 33223 ft | 628 kts | 78° |
| 2026-05-05 06:45 | 37.46882 | 146.87545 | 33237 ft | 628 kts | 78° |
| 2026-05-05 06:45 | 37.49198 | 146.98146 | 33226 ft | 628 kts | 78° |
| 2026-05-05 06:46 | 37.51504 | 147.08755 | 33221 ft | 627 kts | 78° |
| 2026-05-05 06:46 | 37.53804 | 147.19381 | 33211 ft | 628 kts | 79° |
| 2026-05-05 06:47 | 37.56079 | 147.29951 | 33227 ft | 630 kts | 79° |
| 2026-05-05 06:47 | 37.58369 | 147.40636 | 33234 ft | 632 kts | 79° |
| 2026-05-05 06:48 | 37.60657 | 147.51365 | 33192 ft | 634 kts | 79° |
| 2026-05-05 06:48 | 37.62942 | 147.62128 | 33216 ft | 636 kts | 80° |
| 2026-05-05 06:49 | 37.65225 | 147.72938 | 33215 ft | 638 kts | 80° |
| 2026-05-05 06:49 | 37.67509 | 147.83804 | 33559 ft | 641 kts | 80° |
| 2026-05-05 06:49 | 37.68647 | 147.89234 | 33960 ft | 638 kts | 81° |
| 2026-05-05 06:50 | 37.69763 | 147.94569 | 34347 ft | 636 kts | 81° |
| 2026-05-05 06:50 | 37.70888 | 147.99955 | 34726 ft | 633 kts | 81° |
| 2026-05-05 06:50 | 37.72007 | 148.05329 | 35098 ft | 630 kts | 81° |
| 2026-05-05 06:50 | 37.73118 | 148.10691 | 35260 ft | 631 kts | 81° |
| 2026-05-05 06:51 | 37.74229 | 148.16071 | 35200 ft | 633 kts | 81° |
| 2026-05-05 06:51 | 37.76441 | 148.26811 | 35195 ft | 628 kts | 81° |
| 2026-05-05 06:52 | 37.78260 | 148.35677 | 35195 ft | 625 kts | 81° |
| 2026-05-05 06:52 | 37.80431 | 148.46311 | 35193 ft | 624 kts | 81° |
| 2026-05-05 06:53 | 37.82589 | 148.56942 | 35207 ft | 624 kts | 81° |
| 2026-05-05 06:53 | 37.84741 | 148.67595 | 35204 ft | 625 kts | 81° |
| 2026-05-05 06:54 | 37.86876 | 148.78214 | 35206 ft | 627 kts | 81° |
| 2026-05-05 06:54 | 37.89021 | 148.88931 | 35198 ft | 628 kts | 81° |
| 2026-05-05 06:55 | 37.91157 | 148.99661 | 35193 ft | 629 kts | 81° |
| 2026-05-05 06:55 | 37.93289 | 149.10421 | 35190 ft | 629 kts | 81° |
| 2026-05-05 06:56 | 37.95403 | 149.21149 | 35184 ft | 628 kts | 81° |
| 2026-05-05 06:56 | 37.97508 | 149.31887 | 35179 ft | 626 kts | 81° |
| 2026-05-05 06:57 | 37.99598 | 149.42605 | 35178 ft | 625 kts | 82° |
| 2026-05-05 06:57 | 38.01660 | 149.53239 | 35174 ft | 624 kts | 82° |
| 2026-05-05 06:58 | 38.03724 | 149.63938 | 35176 ft | 623 kts | 82° |
| 2026-05-05 06:58 | 38.05769 | 149.74586 | 35166 ft | 619 kts | 82° |
| 2026-05-05 06:59 | 38.07792 | 149.85187 | 35154 ft | 617 kts | 82° |
| 2026-05-05 06:59 | 38.09948 | 149.95739 | 35149 ft | 619 kts | 76° |
| 2026-05-05 07:00 | 38.13174 | 150.05900 | 35149 ft | 622 kts | 65° |
| 2026-05-05 07:00 | 38.17467 | 150.15467 | 35163 ft | 623 kts | 60° |
| 2026-05-05 07:01 | 38.21901 | 150.24959 | 35183 ft | 626 kts | 60° |
| 2026-05-05 07:01 | 38.26288 | 150.34522 | 35157 ft | 630 kts | 61° |
| 2026-05-05 07:02 | 38.30666 | 150.44230 | 35147 ft | 632 kts | 61° |
| 2026-05-05 07:02 | 38.35033 | 150.53976 | 35131 ft | 633 kts | 61° |
| 2026-05-05 07:03 | 38.39371 | 150.63670 | 35130 ft | 632 kts | 61° |
| 2026-05-05 07:03 | 38.43720 | 150.73400 | 35127 ft | 631 kts | 61° |
| 2026-05-05 07:04 | 38.48054 | 150.83119 | 35122 ft | 629 kts | 61° |
| 2026-05-05 07:04 | 38.52377 | 150.92835 | 35120 ft | 628 kts | 61° |
| 2026-05-05 07:05 | 38.56646 | 151.02470 | 35119 ft | 626 kts | 61° |
| 2026-05-05 07:05 | 38.60927 | 151.12173 | 35115 ft | 625 kts | 61° |
| 2026-05-05 07:06 | 38.65188 | 151.21858 | 35121 ft | 625 kts | 61° |
| 2026-05-05 07:06 | 38.69448 | 151.31568 | 35118 ft | 625 kts | 61° |
| 2026-05-05 07:07 | 38.73700 | 151.41287 | 35143 ft | 626 kts | 62° |
| 2026-05-05 07:07 | 38.77962 | 151.51059 | 35114 ft | 628 kts | 62° |
| 2026-05-05 07:08 | 38.82218 | 151.60849 | 35104 ft | 629 kts | 62° |
| 2026-05-05 07:08 | 38.86481 | 151.70685 | 35098 ft | 630 kts | 62° |
| 2026-05-05 07:09 | 38.90705 | 151.80462 | 35101 ft | 631 kts | 62° |
| 2026-05-05 07:09 | 38.94952 | 151.90323 | 35095 ft | 631 kts | 62° |
| 2026-05-05 07:10 | 38.99185 | 152.00183 | 35082 ft | 630 kts | 62° |
| 2026-05-05 07:10 | 39.03407 | 152.10047 | 35083 ft | 629 kts | 62° |
| 2026-05-05 07:11 | 39.07620 | 152.19921 | 35079 ft | 628 kts | 62° |
| 2026-05-05 07:11 | 39.11812 | 152.29777 | 35071 ft | 627 kts | 62° |
| 2026-05-05 07:12 | 39.15992 | 152.39639 | 35074 ft | 626 kts | 62° |
| 2026-05-05 07:12 | 39.20131 | 152.49433 | 35069 ft | 626 kts | 62° |
| 2026-05-05 07:13 | 39.24294 | 152.59316 | 35098 ft | 626 kts | 63° |
| 2026-05-05 07:13 | 39.28460 | 152.69237 | 35061 ft | 627 kts | 63° |
| 2026-05-05 07:14 | 39.32611 | 152.79155 | 35057 ft | 628 kts | 63° |
| 2026-05-05 07:14 | 39.36727 | 152.89021 | 35047 ft | 628 kts | 63° |
| 2026-05-05 07:15 | 39.40868 | 152.98978 | 35047 ft | 629 kts | 63° |
| 2026-05-05 07:15 | 39.45007 | 153.08962 | 35039 ft | 629 kts | 63° |
| 2026-05-05 07:16 | 39.49135 | 153.18953 | 35041 ft | 629 kts | 63° |
| 2026-05-05 07:16 | 39.53255 | 153.28957 | 35035 ft | 630 kts | 63° |
| 2026-05-05 07:17 | 39.57367 | 153.38975 | 35031 ft | 629 kts | 63° |
| 2026-05-05 07:17 | 39.61471 | 153.49005 | 35021 ft | 629 kts | 63° |
| 2026-05-05 07:18 | 39.65560 | 153.59033 | 35017 ft | 628 kts | 63° |
| 2026-05-05 07:18 | 39.69630 | 153.69046 | 35013 ft | 627 kts | 63° |
| 2026-05-05 07:19 | 39.73661 | 153.78993 | 35004 ft | 626 kts | 64° |
| 2026-05-05 07:19 | 39.77710 | 153.89020 | 35018 ft | 627 kts | 64° |
| 2026-05-05 07:20 | 39.81760 | 153.99085 | 35012 ft | 628 kts | 64° |
| 2026-05-05 07:20 | 39.85810 | 154.09181 | 34993 ft | 628 kts | 64° |
| 2026-05-05 07:21 | 39.89845 | 154.19273 | 35008 ft | 629 kts | 64° |
| 2026-05-05 07:21 | 39.93874 | 154.29385 | 35004 ft | 628 kts | 64° |
| 2026-05-05 07:22 | 39.97897 | 154.39516 | 34987 ft | 628 kts | 64° |
| 2026-05-05 07:22 | 40.01898 | 154.49626 | 34989 ft | 627 kts | 64° |
| 2026-05-05 07:23 | 40.05864 | 154.59679 | 34993 ft | 626 kts | 64° |
| 2026-05-05 07:23 | 40.09835 | 154.69781 | 34969 ft | 625 kts | 64° |
| 2026-05-05 07:24 | 40.13790 | 154.79874 | 34978 ft | 623 kts | 65° |
| 2026-05-05 07:24 | 40.17732 | 154.89969 | 34978 ft | 623 kts | 65° |
| 2026-05-05 07:25 | 40.21660 | 155.00065 | 34950 ft | 622 kts | 65° |
| 2026-05-05 07:25 | 40.25571 | 155.10147 | 35012 ft | 621 kts | 65° |
| 2026-05-05 07:26 | 40.29483 | 155.20269 | 34982 ft | 622 kts | 65° |
| 2026-05-05 07:26 | 40.33360 | 155.30335 | 34980 ft | 623 kts | 65° |
| 2026-05-05 07:27 | 40.37266 | 155.40512 | 34974 ft | 624 kts | 65° |
| 2026-05-05 07:27 | 40.41166 | 155.50705 | 34969 ft | 625 kts | 65° |
| 2026-05-05 07:28 | 40.45060 | 155.60919 | 34966 ft | 626 kts | 65° |
| 2026-05-05 07:28 | 40.48947 | 155.71148 | 34966 ft | 624 kts | 65° |
| 2026-05-05 07:29 | 40.52815 | 155.81363 | 34953 ft | 623 kts | 65° |
| 2026-05-05 07:29 | 40.56641 | 155.91503 | 34955 ft | 622 kts | 66° |
| 2026-05-05 07:30 | 40.60474 | 156.01696 | 34951 ft | 620 kts | 66° |
| 2026-05-05 07:30 | 40.66182 | 156.16945 | 34946 ft | 618 kts | 66° |
| 2026-05-05 07:31 | 40.69970 | 156.27109 | 34935 ft | 617 kts | 66° |
| 2026-05-05 07:31 | 40.73741 | 156.37261 | 34946 ft | 616 kts | 66° |
| 2026-05-05 07:32 | 40.77502 | 156.47422 | 34943 ft | 616 kts | 66° |
| 2026-05-05 07:32 | 40.81231 | 156.57534 | 34905 ft | 616 kts | 66° |
| 2026-05-05 07:33 | 40.84972 | 156.67710 | 34929 ft | 615 kts | 66° |
| 2026-05-05 07:33 | 40.88690 | 156.77860 | 34928 ft | 614 kts | 67° |
| 2026-05-05 07:34 | 40.92403 | 156.88035 | 34927 ft | 614 kts | 67° |
| 2026-05-05 07:34 | 40.96098 | 156.98193 | 34923 ft | 612 kts | 67° |
| 2026-05-05 07:35 | 40.99780 | 157.08354 | 34919 ft | 611 kts | 67° |
| 2026-05-05 07:35 | 41.03425 | 157.18447 | 34915 ft | 611 kts | 67° |
| 2026-05-05 07:36 | 41.07080 | 157.28603 | 34907 ft | 610 kts | 67° |
| 2026-05-05 07:36 | 41.10719 | 157.38753 | 34911 ft | 609 kts | 67° |
| 2026-05-05 07:37 | 41.14343 | 157.48897 | 34906 ft | 609 kts | 67° |
| 2026-05-05 07:37 | 41.17965 | 157.59069 | 34905 ft | 608 kts | 67° |
| 2026-05-05 07:38 | 41.20959 | 157.67507 | 34947 ft | 607 kts | 67° |
| 2026-05-05 07:38 | 41.25142 | 157.79336 | 34902 ft | 608 kts | 68° |
| 2026-05-05 07:39 | 41.28151 | 157.87878 | 34870 ft | 609 kts | 68° |
| 2026-05-05 07:39 | 41.31732 | 157.98074 | 34892 ft | 608 kts | 68° |
| 2026-05-05 07:40 | 41.35282 | 158.08220 | 34887 ft | 608 kts | 68° |
| 2026-05-05 07:40 | 41.38842 | 158.18429 | 34888 ft | 608 kts | 68° |
| 2026-05-05 07:41 | 41.42391 | 158.28647 | 34889 ft | 607 kts | 68° |
| 2026-05-05 07:41 | 41.45927 | 158.38864 | 34891 ft | 606 kts | 68° |
| 2026-05-05 07:42 | 41.49451 | 158.49084 | 34871 ft | 606 kts | 68° |
| 2026-05-05 07:42 | 41.52961 | 158.59298 | 34885 ft | 605 kts | 68° |
| 2026-05-05 07:43 | 41.56437 | 158.69451 | 34882 ft | 605 kts | 68° |
| 2026-05-05 07:43 | 41.59927 | 158.79686 | 34870 ft | 605 kts | 68° |
| 2026-05-05 07:44 | 41.63406 | 158.89922 | 34851 ft | 604 kts | 68° |
| 2026-05-05 07:44 | 41.66874 | 159.00165 | 34864 ft | 603 kts | 68° |
| 2026-05-05 07:45 | 41.70329 | 159.10407 | 34861 ft | 604 kts | 69° |
| 2026-05-05 07:45 | 41.73755 | 159.20605 | 34841 ft | 604 kts | 69° |
| 2026-05-05 07:46 | 41.77192 | 159.30869 | 34855 ft | 604 kts | 69° |
| 2026-05-05 07:46 | 41.80620 | 159.41145 | 34860 ft | 603 kts | 69° |
| 2026-05-05 07:47 | 41.84037 | 159.51426 | 34858 ft | 603 kts | 69° |
| 2026-05-05 07:47 | 41.87441 | 159.61709 | 34844 ft | 602 kts | 69° |
| 2026-05-05 07:48 | 41.90811 | 159.71929 | 34853 ft | 601 kts | 69° |
| 2026-05-05 07:48 | 41.94185 | 159.82201 | 34851 ft | 600 kts | 69° |
| 2026-05-05 07:49 | 41.97544 | 159.92462 | 34843 ft | 599 kts | 69° |
| 2026-05-05 07:49 | 42.00440 | 160.02910 | 34837 ft | 592 kts | 79° |
| 2026-05-05 07:50 | 42.02108 | 160.13665 | 34851 ft | 585 kts | 85° |
| 2026-05-05 07:50 | 42.03561 | 160.24433 | 34828 ft | 585 kts | 85° |
| 2026-05-05 07:51 | 42.05042 | 160.35117 | 34828 ft | 584 kts | 84° |
| 2026-05-05 07:51 | 42.06567 | 160.45875 | 34848 ft | 584 kts | 84° |
| 2026-05-05 07:52 | 42.08087 | 160.56599 | 34820 ft | 583 kts | 84° |
| 2026-05-05 07:52 | 42.09594 | 160.67335 | 34835 ft | 582 kts | 84° |
| 2026-05-05 07:53 | 42.11073 | 160.77980 | 34842 ft | 582 kts | 84° |
| 2026-05-05 07:53 | 42.12549 | 160.88694 | 34817 ft | 581 kts | 84° |
| 2026-05-05 07:54 | 42.14014 | 160.99407 | 34838 ft | 580 kts | 84° |
| 2026-05-05 07:54 | 42.15469 | 161.10112 | 34843 ft | 580 kts | 84° |
| 2026-05-05 07:55 | 42.16914 | 161.20824 | 34835 ft | 580 kts | 84° |
| 2026-05-05 07:55 | 42.18347 | 161.31526 | 34836 ft | 580 kts | 84° |
| 2026-05-05 07:56 | 42.19770 | 161.42231 | 34842 ft | 580 kts | 84° |
| 2026-05-05 07:56 | 42.21184 | 161.52950 | 34838 ft | 580 kts | 85° |
| 2026-05-05 07:57 | 42.22577 | 161.63591 | 34835 ft | 579 kts | 84° |
| 2026-05-05 07:57 | 42.23969 | 161.74295 | 34838 ft | 579 kts | 85° |
| 2026-05-05 07:58 | 42.25348 | 161.84989 | 34837 ft | 578 kts | 85° |
| 2026-05-05 07:58 | 42.26717 | 161.95689 | 34837 ft | 577 kts | 85° |
| 2026-05-05 07:59 | 42.28075 | 162.06382 | 34838 ft | 577 kts | 85° |
| 2026-05-05 07:59 | 42.29423 | 162.17075 | 34835 ft | 577 kts | 85° |
| 2026-05-05 08:00 | 42.30758 | 162.27756 | 34809 ft | 577 kts | 85° |
| 2026-05-05 08:00 | 42.32074 | 162.38360 | 34832 ft | 575 kts | 85° |
| 2026-05-05 08:01 | 42.33387 | 162.49028 | 34835 ft | 575 kts | 85° |
| 2026-05-05 08:01 | 42.34689 | 162.59694 | 34828 ft | 574 kts | 85° |
| 2026-05-05 08:02 | 42.35978 | 162.70331 | 34816 ft | 572 kts | 85° |
| 2026-05-05 08:02 | 42.37254 | 162.80954 | 34828 ft | 571 kts | 85° |
| 2026-05-05 08:03 | 42.38520 | 162.91570 | 34829 ft | 570 kts | 85° |
| 2026-05-05 08:03 | 42.39771 | 163.02159 | 34835 ft | 570 kts | 85° |
| 2026-05-05 08:04 | 42.41008 | 163.12707 | 34832 ft | 569 kts | 85° |
| 2026-05-05 08:04 | 42.42241 | 163.23314 | 34823 ft | 569 kts | 85° |
| 2026-05-05 08:05 | 42.43455 | 163.33846 | 34813 ft | 569 kts | 85° |
| 2026-05-05 08:05 | 42.44666 | 163.44429 | 34827 ft | 569 kts | 85° |
| 2026-05-05 08:06 | 42.45867 | 163.55022 | 34830 ft | 569 kts | 85° |
| 2026-05-05 08:06 | 42.47059 | 163.65621 | 34812 ft | 569 kts | 85° |
| 2026-05-05 08:07 | 42.48240 | 163.76220 | 34824 ft | 568 kts | 85° |
| 2026-05-05 08:07 | 42.49411 | 163.86813 | 34829 ft | 567 kts | 85° |
| 2026-05-05 08:08 | 42.50569 | 163.97382 | 34829 ft | 567 kts | 85° |
| 2026-05-05 08:08 | 42.51710 | 164.07895 | 34828 ft | 566 kts | 84° |
| 2026-05-05 08:09 | 42.52846 | 164.18447 | 34822 ft | 565 kts | 85° |
| 2026-05-05 08:09 | 42.53971 | 164.28990 | 34824 ft | 564 kts | 85° |
| 2026-05-05 08:10 | 42.55082 | 164.39507 | 34818 ft | 563 kts | 84° |
| 2026-05-05 08:10 | 42.56183 | 164.50016 | 34832 ft | 562 kts | 84° |
| 2026-05-05 08:11 | 42.57274 | 164.60519 | 34836 ft | 562 kts | 84° |
| 2026-05-05 08:11 | 42.58347 | 164.70955 | 34833 ft | 561 kts | 85° |
| 2026-05-05 08:12 | 42.59416 | 164.81448 | 34837 ft | 561 kts | 84° |
| 2026-05-05 08:12 | 42.60475 | 164.91932 | 34834 ft | 561 kts | 84° |
| 2026-05-05 08:13 | 42.61525 | 165.02424 | 34835 ft | 560 kts | 84° |
| 2026-05-05 08:13 | 42.62563 | 165.12906 | 34835 ft | 560 kts | 84° |
| 2026-05-05 08:14 | 42.63587 | 165.23330 | 34836 ft | 560 kts | 84° |
| 2026-05-05 08:14 | 42.64605 | 165.33810 | 34838 ft | 559 kts | 85° |
| 2026-05-05 08:15 | 42.65616 | 165.44304 | 34847 ft | 559 kts | 85° |
| 2026-05-05 08:15 | 42.66614 | 165.54780 | 34851 ft | 559 kts | 85° |
| 2026-05-05 08:16 | 42.67605 | 165.65281 | 34844 ft | 559 kts | 85° |
| 2026-05-05 08:16 | 42.68585 | 165.75772 | 34847 ft | 559 kts | 85° |
| 2026-05-05 08:17 | 42.69551 | 165.86213 | 34855 ft | 559 kts | 85° |
| 2026-05-05 08:17 | 42.70513 | 165.96719 | 34844 ft | 559 kts | 85° |
| 2026-05-05 08:18 | 42.71465 | 166.07220 | 34842 ft | 559 kts | 85° |
| 2026-05-05 08:18 | 42.72399 | 166.17639 | 34838 ft | 558 kts | 85° |
| 2026-05-05 08:19 | 42.73331 | 166.28138 | 34849 ft | 558 kts | 85° |
| 2026-05-05 08:19 | 42.74251 | 166.38617 | 34850 ft | 557 kts | 85° |
| 2026-05-05 08:20 | 42.75161 | 166.49091 | 34852 ft | 557 kts | 85° |
| 2026-05-05 08:20 | 42.76060 | 166.59563 | 34861 ft | 557 kts | 85° |
| 2026-05-05 08:21 | 42.76943 | 166.69951 | 34861 ft | 557 kts | 85° |
| 2026-05-05 08:21 | 42.77825 | 166.80442 | 34860 ft | 557 kts | 85° |
| 2026-05-05 08:22 | 42.78698 | 166.90940 | 34857 ft | 557 kts | 85° |
| 2026-05-05 08:22 | 42.79559 | 167.01423 | 34865 ft | 557 kts | 85° |
| 2026-05-05 08:23 | 42.80406 | 167.11842 | 34869 ft | 557 kts | 85° |
| 2026-05-05 08:23 | 42.81254 | 167.22400 | 34866 ft | 557 kts | 85° |
| 2026-05-05 08:24 | 42.82083 | 167.32838 | 34869 ft | 557 kts | 85° |
| 2026-05-05 08:24 | 42.82906 | 167.43329 | 34867 ft | 557 kts | 85° |
| 2026-05-05 08:25 | 42.83585 | 167.52073 | 34870 ft | 557 kts | 85° |
| 2026-05-05 08:25 | 42.84390 | 167.62575 | 34864 ft | 557 kts | 85° |
| 2026-05-05 08:26 | 42.85186 | 167.73072 | 34871 ft | 556 kts | 85° |
| 2026-05-05 08:26 | 42.85972 | 167.83563 | 34875 ft | 556 kts | 85° |
| 2026-05-05 08:27 | 42.86747 | 167.94044 | 34878 ft | 556 kts | 85° |
| 2026-05-05 08:27 | 42.87512 | 168.04516 | 34880 ft | 555 kts | 85° |
| 2026-05-05 08:28 | 42.88263 | 168.14932 | 34882 ft | 555 kts | 85° |
| 2026-05-05 08:28 | 42.89008 | 168.25400 | 34884 ft | 554 kts | 85° |
| 2026-05-05 08:29 | 42.89744 | 168.35884 | 34884 ft | 554 kts | 85° |
| 2026-05-05 08:30 | 42.90830 | 168.51604 | 34888 ft | 554 kts | 85° |
| 2026-05-05 08:30 | 42.91537 | 168.62023 | 34890 ft | 555 kts | 85° |
| 2026-05-05 08:31 | 42.92239 | 168.72504 | 34890 ft | 555 kts | 85° |
| 2026-05-05 08:31 | 42.92932 | 168.82993 | 34891 ft | 555 kts | 85° |
| 2026-05-05 08:32 | 42.93616 | 168.93486 | 34893 ft | 555 kts | 85° |
| 2026-05-05 08:32 | 42.94290 | 169.03981 | 34897 ft | 555 kts | 85° |
| 2026-05-05 08:33 | 42.94955 | 169.14497 | 34898 ft | 555 kts | 85° |
| 2026-05-05 08:33 | 42.95611 | 169.25009 | 34900 ft | 555 kts | 85° |
| 2026-05-05 08:34 | 42.96256 | 169.35519 | 34903 ft | 555 kts | 85° |
| 2026-05-05 08:34 | 42.96893 | 169.46048 | 34906 ft | 555 kts | 85° |
| 2026-05-05 08:35 | 42.97515 | 169.56493 | 34906 ft | 555 kts | 85° |
| 2026-05-05 08:35 | 42.98132 | 169.67022 | 34911 ft | 555 kts | 85° |
| 2026-05-05 08:36 | 42.98739 | 169.77544 | 34915 ft | 555 kts | 85° |
| 2026-05-05 08:36 | 42.99336 | 169.88066 | 34922 ft | 555 kts | 85° |
| 2026-05-05 08:37 | 42.99924 | 169.98581 | 34923 ft | 555 kts | 85° |
| 2026-05-05 08:37 | 43.00444 | 170.09114 | 34930 ft | 555 kts | 86° |
| 2026-05-05 08:38 | 43.00872 | 170.19651 | 34928 ft | 555 kts | 86° |
| 2026-05-05 08:38 | 43.01283 | 170.30129 | 34941 ft | 554 kts | 86° |
| 2026-05-05 08:39 | 43.01702 | 170.40651 | 34946 ft | 554 kts | 86° |
| 2026-05-05 08:39 | 43.02120 | 170.51172 | 34951 ft | 554 kts | 86° |
| 2026-05-05 08:40 | 43.02527 | 170.61633 | 34960 ft | 554 kts | 85° |
| 2026-05-05 08:40 | 43.02925 | 170.72157 | 34958 ft | 554 kts | 85° |
| 2026-05-05 08:41 | 43.03314 | 170.82690 | 34971 ft | 554 kts | 86° |
| 2026-05-05 08:41 | 43.03692 | 170.93218 | 34979 ft | 554 kts | 85° |
| 2026-05-05 08:42 | 43.04059 | 171.03737 | 34981 ft | 554 kts | 85° |
| 2026-05-05 08:42 | 43.04418 | 171.14251 | 34984 ft | 553 kts | 85° |
| 2026-05-05 08:43 | 43.04765 | 171.24708 | 34995 ft | 553 kts | 85° |
| 2026-05-05 08:43 | 43.05104 | 171.35216 | 35000 ft | 552 kts | 85° |
| 2026-05-05 08:44 | 43.05433 | 171.45719 | 35000 ft | 552 kts | 85° |
| 2026-05-05 08:44 | 43.05753 | 171.56213 | 35010 ft | 552 kts | 85° |
| 2026-05-05 08:45 | 43.06062 | 171.66694 | 35022 ft | 551 kts | 85° |
| 2026-05-05 08:45 | 43.06360 | 171.77116 | 35018 ft | 551 kts | 85° |
| 2026-05-05 08:46 | 43.06650 | 171.87593 | 35031 ft | 552 kts | 85° |
| 2026-05-05 08:46 | 43.06931 | 171.98073 | 35038 ft | 552 kts | 85° |
| 2026-05-05 08:47 | 43.07202 | 172.08576 | 35043 ft | 552 kts | 85° |
| 2026-05-05 08:47 | 43.07464 | 172.19065 | 35049 ft | 552 kts | 85° |
| 2026-05-05 08:48 | 43.07716 | 172.29555 | 35056 ft | 552 kts | 85° |
| 2026-05-05 08:48 | 43.07957 | 172.39988 | 35057 ft | 552 kts | 85° |
| 2026-05-05 08:49 | 43.08190 | 172.50485 | 35071 ft | 551 kts | 85° |
| 2026-05-05 08:49 | 43.08413 | 172.60975 | 35068 ft | 551 kts | 85° |
| 2026-05-05 08:50 | 43.08626 | 172.71453 | 35077 ft | 551 kts | 85° |
| 2026-05-05 08:50 | 43.08831 | 172.81959 | 35079 ft | 551 kts | 85° |
| 2026-05-05 08:51 | 43.09025 | 172.92420 | 35082 ft | 550 kts | 85° |
| 2026-05-05 08:51 | 43.09208 | 173.02837 | 35088 ft | 550 kts | 86° |
| 2026-05-05 08:52 | 43.09383 | 173.13307 | 35085 ft | 550 kts | 86° |
| 2026-05-05 08:52 | 43.09549 | 173.23796 | 35103 ft | 551 kts | 85° |
| 2026-05-05 08:53 | 43.09705 | 173.34278 | 35104 ft | 551 kts | 85° |
| 2026-05-05 08:53 | 43.09851 | 173.44709 | 35104 ft | 551 kts | 86° |
| 2026-05-05 08:54 | 43.09988 | 173.55219 | 35115 ft | 552 kts | 85° |
| 2026-05-05 08:54 | 43.10116 | 173.65732 | 35103 ft | 552 kts | 85° |
| 2026-05-05 08:55 | 43.10234 | 173.76246 | 35116 ft | 553 kts | 85° |
| 2026-05-05 08:55 | 43.10343 | 173.86774 | 35117 ft | 553 kts | 85° |
| 2026-05-05 08:56 | 43.10442 | 173.97290 | 35116 ft | 553 kts | 85° |
| 2026-05-05 08:56 | 43.10531 | 174.07764 | 35120 ft | 554 kts | 85° |
| 2026-05-05 08:57 | 43.10611 | 174.18311 | 35123 ft | 554 kts | 85° |
| 2026-05-05 08:57 | 43.10681 | 174.28848 | 35122 ft | 554 kts | 85° |
| 2026-05-05 08:58 | 43.10740 | 174.39394 | 35126 ft | 554 kts | 85° |
| 2026-05-05 08:58 | 43.10791 | 174.49928 | 35124 ft | 553 kts | 85° |
| 2026-05-05 08:59 | 43.10833 | 174.60466 | 35128 ft | 553 kts | 85° |
| 2026-05-05 08:59 | 43.10864 | 174.70928 | 35145 ft | 553 kts | 85° |
| 2026-05-05 09:00 | 43.10886 | 174.81450 | 35132 ft | 552 kts | 85° |
| 2026-05-05 09:00 | 43.10898 | 174.91967 | 35136 ft | 552 kts | 85° |
| 2026-05-05 09:01 | 43.10900 | 175.02480 | 35141 ft | 552 kts | 85° |
| 2026-05-05 09:01 | 43.10893 | 175.12985 | 35141 ft | 552 kts | 85° |
| 2026-05-05 09:02 | 43.10877 | 175.23436 | 35136 ft | 552 kts | 85° |
| 2026-05-05 09:02 | 43.10851 | 175.33949 | 35139 ft | 552 kts | 85° |
| 2026-05-05 09:03 | 43.10815 | 175.44475 | 35157 ft | 553 kts | 85° |
| 2026-05-05 09:03 | 43.10769 | 175.55008 | 35141 ft | 553 kts | 85° |
| 2026-05-05 09:04 | 43.10715 | 175.65475 | 35138 ft | 554 kts | 85° |
| 2026-05-05 09:04 | 43.10649 | 175.76024 | 35140 ft | 554 kts | 85° |
| 2026-05-05 09:05 | 43.10574 | 175.86585 | 35132 ft | 555 kts | 85° |
| 2026-05-05 09:05 | 43.10490 | 175.97148 | 35145 ft | 555 kts | 85° |
| 2026-05-05 09:06 | 43.10396 | 176.07728 | 35133 ft | 556 kts | 85° |
| 2026-05-05 09:06 | 43.10292 | 176.18310 | 35135 ft | 556 kts | 85° |
| 2026-05-05 09:07 | 43.10178 | 176.28852 | 35143 ft | 557 kts | 85° |
| 2026-05-05 09:07 | 43.10054 | 176.39472 | 35138 ft | 558 kts | 85° |
| 2026-05-05 09:08 | 43.09920 | 176.50096 | 35133 ft | 558 kts | 85° |
| 2026-05-05 09:08 | 43.09777 | 176.60665 | 35137 ft | 558 kts | 85° |
| 2026-05-05 09:09 | 43.09623 | 176.71291 | 35137 ft | 558 kts | 85° |
| 2026-05-05 09:09 | 43.09459 | 176.81917 | 35136 ft | 558 kts | 85° |
| 2026-05-05 09:10 | 43.09286 | 176.92549 | 35136 ft | 558 kts | 85° |
| 2026-05-05 09:10 | 43.09103 | 177.03159 | 35139 ft | 559 kts | 85° |
| 2026-05-05 09:11 | 43.08911 | 177.13732 | 35138 ft | 559 kts | 85° |
| 2026-05-05 09:11 | 43.08709 | 177.24358 | 35135 ft | 559 kts | 85° |
| 2026-05-05 09:12 | 43.08495 | 177.34990 | 35168 ft | 559 kts | 84° |
| 2026-05-05 09:12 | 43.08273 | 177.45619 | 35141 ft | 559 kts | 84° |
| 2026-05-05 09:13 | 43.08042 | 177.56201 | 35133 ft | 559 kts | 85° |
| 2026-05-05 09:13 | 43.07800 | 177.66824 | 35137 ft | 559 kts | 85° |
| 2026-05-05 09:14 | 43.07589 | 177.75719 | 35153 ft | 559 kts | 84° |
| 2026-05-05 09:14 | 43.07330 | 177.86289 | 35135 ft | 559 kts | 84° |
| 2026-05-05 09:15 | 43.07061 | 177.96911 | 35129 ft | 559 kts | 84° |
| 2026-05-05 09:15 | 43.06781 | 178.07530 | 35129 ft | 558 kts | 84° |
| 2026-05-05 09:16 | 43.06491 | 178.18154 | 35132 ft | 559 kts | 84° |
| 2026-05-05 09:16 | 43.06192 | 178.28774 | 35130 ft | 559 kts | 84° |
| 2026-05-05 09:17 | 43.05882 | 178.39398 | 35130 ft | 559 kts | 84° |
| 2026-05-05 09:17 | 43.05563 | 178.50018 | 35155 ft | 559 kts | 84° |
| 2026-05-05 09:18 | 43.05234 | 178.60658 | 35131 ft | 560 kts | 84° |
| 2026-05-05 09:18 | 43.04897 | 178.71225 | 35132 ft | 560 kts | 84° |
| 2026-05-05 09:19 | 43.04548 | 178.81855 | 35119 ft | 560 kts | 84° |
| 2026-05-05 09:19 | 43.04188 | 178.92507 | 35135 ft | 561 kts | 83° |
| 2026-05-05 09:20 | 43.03818 | 179.03175 | 35126 ft | 561 kts | 83° |
| 2026-05-05 09:20 | 43.03438 | 179.13838 | 35114 ft | 561 kts | 83° |
| 2026-05-05 09:21 | 43.03047 | 179.24504 | 35140 ft | 561 kts | 83° |
| 2026-05-05 09:21 | 43.02650 | 179.35090 | 35111 ft | 561 kts | 83° |
| 2026-05-05 09:22 | 43.02240 | 179.45748 | 35103 ft | 560 kts | 83° |
| 2026-05-05 09:22 | 43.01822 | 179.56373 | 35104 ft | 560 kts | 83° |
| 2026-05-05 09:23 | 43.01394 | 179.66996 | 35117 ft | 559 kts | 83° |
| 2026-05-05 09:23 | 43.00957 | 179.77611 | 35102 ft | 559 kts | 83° |
| 2026-05-05 09:24 | 43.00512 | 179.88157 | 35100 ft | 559 kts | 83° |
| 2026-05-05 09:24 | 43.00068 | 179.98777 | 35102 ft | 557 kts | 82° |
| 2026-05-05 09:25 | 43.00279 | -179.90782 | 35095 ft | 547 kts | 75° |
| 2026-05-05 09:25 | 43.00783 | -179.80415 | 35103 ft | 546 kts | 74° |
| 2026-05-05 09:26 | 43.01264 | -179.70114 | 35092 ft | 547 kts | 75° |
| 2026-05-05 09:26 | 43.01699 | -179.59734 | 35091 ft | 547 kts | 75° |
| 2026-05-05 09:27 | 43.02108 | -179.49325 | 35087 ft | 548 kts | 75° |
| 2026-05-05 09:27 | 43.02507 | -179.38912 | 35095 ft | 548 kts | 75° |
| 2026-05-05 09:28 | 43.02899 | -179.28496 | 35097 ft | 549 kts | 75° |
| 2026-05-05 09:28 | 43.03282 | -179.18136 | 35099 ft | 550 kts | 75° |
| 2026-05-05 09:29 | 43.03660 | -179.07678 | 35083 ft | 551 kts | 75° |
| 2026-05-05 09:29 | 43.04027 | -178.97191 | 35071 ft | 551 kts | 75° |
| 2026-05-05 09:30 | 43.04384 | -178.86724 | 35072 ft | 551 kts | 75° |
| 2026-05-05 09:30 | 43.04732 | -178.76257 | 35080 ft | 551 kts | 75° |
| 2026-05-05 09:31 | 43.05068 | -178.65856 | 35075 ft | 551 kts | 75° |
| 2026-05-05 09:31 | 43.05396 | -178.55393 | 35062 ft | 550 kts | 75° |
| 2026-05-05 09:32 | 43.05715 | -178.44944 | 35113 ft | 549 kts | 75° |
| 2026-05-05 09:32 | 43.06025 | -178.34490 | 35068 ft | 549 kts | 75° |
| 2026-05-05 09:33 | 43.06321 | -178.24126 | 35043 ft | 548 kts | 75° |
| 2026-05-05 09:33 | 43.06610 | -178.13711 | 35055 ft | 546 kts | 75° |
| 2026-05-05 09:34 | 43.06890 | -178.03340 | 35065 ft | 546 kts | 74° |
| 2026-05-05 09:34 | 43.07160 | -177.92953 | 35048 ft | 545 kts | 74° |
| 2026-05-05 09:35 | 43.07410 | -177.82961 | 35037 ft | 544 kts | 74° |
| 2026-05-05 09:35 | 43.07782 | -177.67462 | 35082 ft | 543 kts | 74° |
| 2026-05-05 09:36 | 43.08019 | -177.57182 | 35037 ft | 544 kts | 74° |
| 2026-05-05 09:36 | 43.08246 | -177.46840 | 35031 ft | 544 kts | 74° |
| 2026-05-05 09:37 | 43.08464 | -177.36499 | 35022 ft | 543 kts | 74° |
| 2026-05-05 09:37 | 43.08672 | -177.26170 | 35042 ft | 544 kts | 73° |
| 2026-05-05 09:38 | 43.08872 | -177.15807 | 35023 ft | 544 kts | 74° |
| 2026-05-05 09:38 | 43.09062 | -177.05432 | 35010 ft | 544 kts | 74° |
| 2026-05-05 09:39 | 43.09242 | -176.95073 | 35010 ft | 544 kts | 74° |
| 2026-05-05 09:39 | 43.09414 | -176.84726 | 35010 ft | 545 kts | 73° |
| 2026-05-05 09:40 | 43.09574 | -176.74432 | 35000 ft | 544 kts | 73° |
| 2026-05-05 09:40 | 43.09726 | -176.64083 | 34992 ft | 543 kts | 73° |
| 2026-05-05 09:41 | 43.09869 | -176.53740 | 35045 ft | 543 kts | 73° |
| 2026-05-05 09:41 | 43.10004 | -176.43389 | 34989 ft | 543 kts | 73° |
| 2026-05-05 09:42 | 43.10126 | -176.33069 | 34978 ft | 542 kts | 73° |
| 2026-05-05 09:42 | 43.10241 | -176.22773 | 34982 ft | 541 kts | 73° |
| 2026-05-05 09:43 | 43.10346 | -176.12542 | 35006 ft | 541 kts | 73° |
| 2026-05-05 09:43 | 43.10443 | -176.02244 | 34980 ft | 540 kts | 73° |
| 2026-05-05 09:44 | 43.10530 | -175.91965 | 34976 ft | 540 kts | 73° |
| 2026-05-05 09:44 | 43.10607 | -175.81688 | 34970 ft | 539 kts | 73° |
| 2026-05-05 09:45 | 43.10677 | -175.71421 | 34964 ft | 540 kts | 73° |
| 2026-05-05 09:45 | 43.10737 | -175.61132 | 34965 ft | 540 kts | 73° |
| 2026-05-05 09:46 | 43.10787 | -175.50921 | 34959 ft | 541 kts | 73° |
| 2026-05-05 09:46 | 43.10828 | -175.40630 | 35010 ft | 541 kts | 73° |
| 2026-05-05 09:47 | 43.10860 | -175.30316 | 34959 ft | 542 kts | 73° |
| 2026-05-05 09:47 | 43.10880 | -175.20004 | 34945 ft | 541 kts | 73° |
| 2026-05-05 09:48 | 43.10892 | -175.09699 | 34931 ft | 540 kts | 73° |
| 2026-05-05 09:48 | 43.10896 | -174.99422 | 34979 ft | 539 kts | 73° |
| 2026-05-05 09:49 | 43.10890 | -174.89175 | 34937 ft | 538 kts | 73° |
| 2026-05-05 09:49 | 43.10875 | -174.79013 | 34926 ft | 536 kts | 73° |
| 2026-05-05 09:50 | 43.10852 | -174.68808 | 34931 ft | 535 kts | 73° |
| 2026-05-05 09:50 | 43.10821 | -174.58629 | 34943 ft | 534 kts | 73° |
| 2026-05-05 09:51 | 43.10780 | -174.48469 | 34917 ft | 533 kts | 73° |
| 2026-05-05 09:51 | 43.10728 | -174.38332 | 34912 ft | 531 kts | 73° |
| 2026-05-05 09:52 | 43.10670 | -174.28241 | 34965 ft | 530 kts | 73° |
| 2026-05-05 09:52 | 43.10605 | -174.18217 | 34912 ft | 530 kts | 73° |
| 2026-05-05 09:53 | 43.10527 | -174.08142 | 34905 ft | 528 kts | 73° |
| 2026-05-05 09:53 | 43.10442 | -173.98092 | 34899 ft | 527 kts | 73° |
| 2026-05-05 09:54 | 43.10350 | -173.88066 | 34958 ft | 527 kts | 74° |
| 2026-05-05 09:54 | 43.10250 | -173.78006 | 34903 ft | 527 kts | 74° |
| 2026-05-05 09:55 | 43.10137 | -173.67970 | 34890 ft | 527 kts | 74° |
| 2026-05-05 09:55 | 43.10017 | -173.58026 | 34887 ft | 526 kts | 74° |
| 2026-05-05 09:56 | 43.09891 | -173.48009 | 34920 ft | 526 kts | 77° |
| 2026-05-05 09:56 | 43.09756 | -173.38011 | 34881 ft | 525 kts | 77° |
| 2026-05-05 09:57 | 43.09609 | -173.28020 | 34872 ft | 525 kts | 77° |
| 2026-05-05 09:57 | 43.09454 | -173.18046 | 34866 ft | 524 kts | 77° |
| 2026-05-05 09:58 | 43.09295 | -173.08063 | 34872 ft | 525 kts | 79° |
| 2026-05-05 09:58 | 43.09124 | -172.98085 | 34861 ft | 524 kts | 79° |
| 2026-05-05 09:59 | 43.08943 | -172.88111 | 34859 ft | 524 kts | 79° |
| 2026-05-05 09:59 | 43.08756 | -172.78209 | 34855 ft | 523 kts | 79° |
| 2026-05-05 10:00 | 43.08561 | -172.68247 | 34857 ft | 524 kts | 81° |
| 2026-05-05 10:00 | 43.08354 | -172.58291 | 34852 ft | 523 kts | 81° |
| 2026-05-05 10:01 | 43.08139 | -172.48349 | 34843 ft | 523 kts | 81° |
| 2026-05-05 10:01 | 43.07955 | -172.40084 | 34855 ft | 522 kts | 81° |
| 2026-05-05 10:02 | 43.07727 | -172.30156 | 34846 ft | 522 kts | 82° |
| 2026-05-05 10:02 | 43.07489 | -172.20225 | 34835 ft | 521 kts | 82° |
| 2026-05-05 10:03 | 43.07242 | -172.10313 | 34830 ft | 521 kts | 82° |
| 2026-05-05 10:03 | 43.06988 | -172.00423 | 34835 ft | 520 kts | 82° |
| 2026-05-05 10:04 | 43.06727 | -171.90528 | 34828 ft | 520 kts | 82° |
| 2026-05-05 10:04 | 43.06456 | -171.80632 | 34829 ft | 521 kts | 83° |
| 2026-05-05 10:05 | 43.06176 | -171.70728 | 34825 ft | 521 kts | 83° |
| 2026-05-05 10:05 | 43.05888 | -171.60813 | 34839 ft | 522 kts | 84° |
| 2026-05-05 10:06 | 43.05590 | -171.50887 | 34817 ft | 522 kts | 84° |
| 2026-05-05 10:06 | 43.05284 | -171.41013 | 34810 ft | 522 kts | 84° |
| 2026-05-05 10:07 | 43.04970 | -171.31115 | 34805 ft | 521 kts | 84° |
| 2026-05-05 10:07 | 43.04649 | -171.21217 | 34817 ft | 522 kts | 85° |
| 2026-05-05 10:08 | 43.04317 | -171.11321 | 34804 ft | 521 kts | 85° |
| 2026-05-05 10:08 | 43.03977 | -171.01426 | 34794 ft | 520 kts | 85° |
| 2026-05-05 10:09 | 43.03629 | -170.91550 | 34803 ft | 520 kts | 85° |
| 2026-05-05 10:09 | 43.03274 | -170.81677 | 34791 ft | 520 kts | 86° |
| 2026-05-05 10:10 | 43.02910 | -170.71815 | 34787 ft | 519 kts | 86° |
| 2026-05-05 10:10 | 43.02537 | -170.61946 | 34789 ft | 519 kts | 86° |
| 2026-05-05 10:11 | 43.02156 | -170.52099 | 34814 ft | 519 kts | 86° |
| 2026-05-05 10:11 | 43.01770 | -170.42303 | 34787 ft | 520 kts | 87° |
| 2026-05-05 10:12 | 43.01371 | -170.32435 | 34773 ft | 520 kts | 87° |
| 2026-05-05 10:12 | 43.00964 | -170.22567 | 34775 ft | 520 kts | 87° |
| 2026-05-05 10:13 | 43.00549 | -170.12688 | 34787 ft | 521 kts | 88° |
| 2026-05-05 10:13 | 43.00210 | -170.02809 | 34770 ft | 517 kts | 84° |
| 2026-05-05 10:14 | 43.00881 | -169.93113 | 34758 ft | 508 kts | 73° |
| 2026-05-05 10:14 | 43.02299 | -169.83656 | 34765 ft | 507 kts | 72° |
| 2026-05-05 10:15 | 43.03707 | -169.74250 | 34771 ft | 508 kts | 74° |
| 2026-05-05 10:15 | 43.05082 | -169.64775 | 34761 ft | 508 kts | 74° |
| 2026-05-05 10:16 | 43.06429 | -169.55293 | 34752 ft | 508 kts | 74° |
| 2026-05-05 10:16 | 43.07766 | -169.45797 | 34753 ft | 508 kts | 74° |
| 2026-05-05 10:17 | 43.09091 | -169.36348 | 34753 ft | 508 kts | 75° |
| 2026-05-05 10:17 | 43.10414 | -169.26853 | 34744 ft | 508 kts | 75° |
| 2026-05-05 10:18 | 43.11731 | -169.17348 | 34747 ft | 508 kts | 75° |
| 2026-05-05 10:18 | 43.13038 | -169.07849 | 34742 ft | 507 kts | 76° |
| 2026-05-05 10:19 | 43.14336 | -168.98357 | 34743 ft | 506 kts | 76° |
| 2026-05-05 10:19 | 43.15618 | -168.88924 | 34734 ft | 506 kts | 76° |
| 2026-05-05 10:20 | 43.16896 | -168.79459 | 34734 ft | 505 kts | 76° |
| 2026-05-05 10:20 | 43.18163 | -168.70008 | 34734 ft | 504 kts | 76° |
| 2026-05-05 10:21 | 43.19425 | -168.60542 | 34730 ft | 504 kts | 77° |
| 2026-05-05 10:21 | 43.20675 | -168.51094 | 34730 ft | 504 kts | 77° |
| 2026-05-05 10:22 | 43.21918 | -168.41645 | 34731 ft | 503 kts | 77° |
| 2026-05-05 10:22 | 43.23144 | -168.32255 | 34727 ft | 503 kts | 77° |
| 2026-05-05 10:23 | 43.24371 | -168.22798 | 34737 ft | 503 kts | 77° |
| 2026-05-05 10:23 | 43.25591 | -168.13333 | 34733 ft | 503 kts | 77° |
| 2026-05-05 10:24 | 43.26800 | -168.03880 | 34728 ft | 503 kts | 78° |
| 2026-05-05 10:24 | 43.28003 | -167.94417 | 34733 ft | 503 kts | 78° |
| 2026-05-05 10:25 | 43.29201 | -167.84936 | 34721 ft | 503 kts | 78° |
| 2026-05-05 10:25 | 43.30389 | -167.75458 | 34720 ft | 504 kts | 78° |
| 2026-05-05 10:26 | 43.31569 | -167.65977 | 34727 ft | 504 kts | 78° |
| 2026-05-05 10:26 | 43.32743 | -167.56484 | 34719 ft | 504 kts | 79° |
| 2026-05-05 10:27 | 43.33901 | -167.47047 | 34719 ft | 504 kts | 79° |
| 2026-05-05 10:27 | 43.35060 | -167.37537 | 34717 ft | 504 kts | 79° |
| 2026-05-05 10:28 | 43.36210 | -167.28028 | 34714 ft | 505 kts | 79° |
| 2026-05-05 10:28 | 43.37354 | -167.18510 | 34722 ft | 505 kts | 79° |
| 2026-05-05 10:29 | 43.38490 | -167.08982 | 34714 ft | 505 kts | 79° |
| 2026-05-05 10:29 | 43.39618 | -166.99451 | 34717 ft | 505 kts | 79° |
| 2026-05-05 10:30 | 43.40739 | -166.89909 | 34719 ft | 505 kts | 79° |
| 2026-05-05 10:30 | 43.41854 | -166.80352 | 34719 ft | 506 kts | 80° |
| 2026-05-05 10:31 | 43.42953 | -166.70855 | 34714 ft | 506 kts | 80° |
| 2026-05-05 10:31 | 43.44054 | -166.61263 | 34721 ft | 506 kts | 80° |
| 2026-05-05 10:32 | 43.45146 | -166.51692 | 34718 ft | 506 kts | 80° |
| 2026-05-05 10:32 | 43.46230 | -166.42106 | 34714 ft | 506 kts | 81° |
| 2026-05-05 10:33 | 43.47305 | -166.32531 | 34716 ft | 506 kts | 81° |
| 2026-05-05 10:33 | 43.48367 | -166.22992 | 34718 ft | 506 kts | 81° |
| 2026-05-05 10:34 | 43.49433 | -166.13343 | 34710 ft | 506 kts | 81° |
| 2026-05-05 10:34 | 43.50485 | -166.03753 | 34715 ft | 506 kts | 82° |
| 2026-05-05 10:35 | 43.51521 | -165.94222 | 34716 ft | 506 kts | 82° |
| 2026-05-05 10:35 | 43.52558 | -165.84609 | 34716 ft | 507 kts | 82° |
| 2026-05-05 10:36 | 43.53586 | -165.74998 | 34725 ft | 507 kts | 82° |
| 2026-05-05 10:36 | 43.54607 | -165.65382 | 34718 ft | 507 kts | 82° |
| 2026-05-05 10:37 | 43.55620 | -165.55763 | 34717 ft | 507 kts | 82° |
| 2026-05-05 10:37 | 43.56619 | -165.46191 | 34718 ft | 506 kts | 82° |
| 2026-05-05 10:38 | 43.57616 | -165.36561 | 34712 ft | 506 kts | 83° |
| 2026-05-05 10:38 | 43.58606 | -165.26916 | 34855 ft | 510 kts | 83° |
| 2026-05-05 10:39 | 43.59099 | -165.22079 | 35152 ft | 509 kts | 83° |
| 2026-05-05 10:39 | 43.59590 | -165.17242 | 35464 ft | 507 kts | 83° |
| 2026-05-05 10:39 | 43.60077 | -165.12426 | 35788 ft | 505 kts | 83° |
| 2026-05-05 10:39 | 43.60554 | -165.07696 | 36079 ft | 505 kts | 83° |
| 2026-05-05 10:40 | 43.61034 | -165.02908 | 36345 ft | 504 kts | 83° |
| 2026-05-05 10:40 | 43.61518 | -164.98055 | 36599 ft | 504 kts | 83° |
| 2026-05-05 10:40 | 43.62466 | -164.88493 | 36710 ft | 505 kts | 83° |
| 2026-05-05 10:41 | 43.63408 | -164.78913 | 36713 ft | 502 kts | 83° |
| 2026-05-05 10:41 | 43.64337 | -164.69381 | 36718 ft | 500 kts | 83° |
| 2026-05-05 10:42 | 43.65711 | -164.55122 | 36715 ft | 499 kts | 83° |
| 2026-05-05 10:43 | 43.66616 | -164.45619 | 36714 ft | 499 kts | 83° |
| 2026-05-05 10:43 | 43.67515 | -164.36099 | 36721 ft | 500 kts | 83° |
| 2026-05-05 10:44 | 43.68410 | -164.26539 | 36719 ft | 502 kts | 83° |
| 2026-05-05 10:44 | 43.69292 | -164.17022 | 36724 ft | 503 kts | 84° |
| 2026-05-05 10:45 | 43.70174 | -164.07412 | 36722 ft | 504 kts | 84° |
| 2026-05-05 10:45 | 43.70902 | -163.99418 | 36714 ft | 505 kts | 84° |
| 2026-05-05 10:46 | 43.71773 | -163.89769 | 36710 ft | 506 kts | 84° |
| 2026-05-05 10:46 | 43.72636 | -163.80113 | 36716 ft | 506 kts | 84° |
| 2026-05-05 10:47 | 43.73492 | -163.70443 | 36733 ft | 506 kts | 84° |
| 2026-05-05 10:47 | 43.74340 | -163.60777 | 36711 ft | 506 kts | 85° |
| 2026-05-05 10:48 | 43.75179 | -163.51105 | 36732 ft | 506 kts | 85° |
| 2026-05-05 10:48 | 43.76005 | -163.41490 | 36739 ft | 507 kts | 85° |
| 2026-05-05 10:49 | 43.76834 | -163.31748 | 36750 ft | 507 kts | 85° |
| 2026-05-05 10:49 | 43.77645 | -163.22116 | 36730 ft | 507 kts | 85° |
| 2026-05-05 10:50 | 43.78453 | -163.12420 | 36745 ft | 507 kts | 85° |
| 2026-05-05 10:50 | 43.79253 | -163.02716 | 36761 ft | 508 kts | 86° |
| 2026-05-05 10:51 | 43.80046 | -162.92989 | 36752 ft | 508 kts | 86° |
| 2026-05-05 10:51 | 43.80832 | -162.83262 | 36757 ft | 508 kts | 86° |
| 2026-05-05 10:52 | 43.81608 | -162.73534 | 36753 ft | 508 kts | 86° |
| 2026-05-05 10:52 | 43.82377 | -162.63798 | 36765 ft | 508 kts | 86° |
| 2026-05-05 10:53 | 43.83138 | -162.54063 | 36772 ft | 508 kts | 86° |
| 2026-05-05 10:53 | 43.83886 | -162.44377 | 36763 ft | 508 kts | 86° |
| 2026-05-05 10:54 | 43.84630 | -162.34643 | 36776 ft | 508 kts | 86° |
| 2026-05-05 10:54 | 43.85365 | -162.24906 | 36783 ft | 508 kts | 86° |
| 2026-05-05 10:55 | 43.86091 | -162.15169 | 36791 ft | 508 kts | 86° |
| 2026-05-05 10:55 | 43.86809 | -162.05440 | 36779 ft | 507 kts | 86° |
| 2026-05-05 10:56 | 43.87518 | -161.95714 | 36802 ft | 507 kts | 87° |
| 2026-05-05 10:56 | 43.88216 | -161.86028 | 36810 ft | 507 kts | 87° |
| 2026-05-05 10:57 | 43.88910 | -161.76279 | 36807 ft | 507 kts | 87° |
| 2026-05-05 10:57 | 43.89594 | -161.66547 | 36804 ft | 507 kts | 87° |
| 2026-05-05 10:58 | 43.90271 | -161.56808 | 36830 ft | 507 kts | 87° |
| 2026-05-05 10:58 | 43.90938 | -161.47083 | 36830 ft | 506 kts | 87° |
| 2026-05-05 10:59 | 43.91592 | -161.37426 | 36841 ft | 506 kts | 87° |
| 2026-05-05 10:59 | 43.92242 | -161.27702 | 36843 ft | 506 kts | 87° |
| 2026-05-05 11:00 | 43.92884 | -161.17984 | 36841 ft | 506 kts | 88° |
| 2026-05-05 11:00 | 43.93518 | -161.08241 | 36853 ft | 506 kts | 88° |
| 2026-05-05 11:01 | 43.94143 | -160.98522 | 36856 ft | 506 kts | 88° |
| 2026-05-05 11:01 | 43.94761 | -160.88779 | 36857 ft | 507 kts | 88° |
| 2026-05-05 11:02 | 43.95366 | -160.79095 | 36859 ft | 507 kts | 88° |
| 2026-05-05 11:02 | 43.95968 | -160.69338 | 36865 ft | 507 kts | 88° |
| 2026-05-05 11:03 | 43.96562 | -160.59572 | 36877 ft | 507 kts | 88° |
| 2026-05-05 11:03 | 43.97147 | -160.49820 | 36876 ft | 507 kts | 88° |
| 2026-05-05 11:04 | 43.97724 | -160.40053 | 36879 ft | 507 kts | 88° |
| 2026-05-05 11:04 | 43.98292 | -160.30298 | 36895 ft | 507 kts | 88° |
| 2026-05-05 11:05 | 43.98851 | -160.20544 | 36891 ft | 507 kts | 88° |
| 2026-05-05 11:05 | 43.99403 | -160.10772 | 36905 ft | 508 kts | 88° |
| 2026-05-05 11:06 | 43.99945 | -160.01045 | 36895 ft | 508 kts | 88° |
| 2026-05-05 11:06 | 44.00423 | -159.91257 | 36922 ft | 507 kts | 89° |
| 2026-05-05 11:07 | 44.00822 | -159.81478 | 36916 ft | 507 kts | 89° |
| 2026-05-05 11:07 | 44.01211 | -159.71709 | 36920 ft | 507 kts | 89° |
| 2026-05-05 11:08 | 44.01604 | -159.61925 | 36916 ft | 506 kts | 89° |
| 2026-05-05 11:08 | 44.01994 | -159.52154 | 36938 ft | 506 kts | 89° |
| 2026-05-05 11:09 | 44.02375 | -159.42448 | 36938 ft | 506 kts | 89° |
| 2026-05-05 11:09 | 44.02750 | -159.32662 | 36945 ft | 506 kts | 89° |
| 2026-05-05 11:10 | 44.03115 | -159.22881 | 36929 ft | 506 kts | 90° |
| 2026-05-05 11:10 | 44.03472 | -159.13109 | 36955 ft | 506 kts | 90° |
| 2026-05-05 11:11 | 44.03821 | -159.03329 | 36958 ft | 507 kts | 90° |
| 2026-05-05 11:11 | 44.04162 | -158.93531 | 36970 ft | 507 kts | 90° |
| 2026-05-05 11:12 | 44.04494 | -158.83741 | 36966 ft | 507 kts | 90° |
| 2026-05-05 11:12 | 44.04816 | -158.74007 | 36968 ft | 507 kts | 90° |
| 2026-05-05 11:13 | 44.05132 | -158.64203 | 36980 ft | 507 kts | 90° |
| 2026-05-05 11:13 | 44.05440 | -158.54389 | 36994 ft | 508 kts | 90° |
| 2026-05-05 11:14 | 44.05739 | -158.44582 | 36990 ft | 508 kts | 90° |
| 2026-05-05 11:14 | 44.06031 | -158.34753 | 36982 ft | 508 kts | 90° |
| 2026-05-05 11:15 | 44.06314 | -158.24925 | 37009 ft | 508 kts | 90° |
| 2026-05-05 11:15 | 44.06589 | -158.15097 | 37009 ft | 508 kts | 90° |
| 2026-05-05 11:16 | 44.06855 | -158.05263 | 36999 ft | 508 kts | 90° |
| 2026-05-05 11:16 | 44.07111 | -157.95504 | 37003 ft | 508 kts | 90° |
| 2026-05-05 11:17 | 44.07360 | -157.85687 | 37015 ft | 508 kts | 90° |
| 2026-05-05 11:17 | 44.07601 | -157.75861 | 37022 ft | 508 kts | 90° |
| 2026-05-05 11:18 | 44.07833 | -157.66045 | 37027 ft | 508 kts | 90° |
| 2026-05-05 11:18 | 44.08057 | -157.56203 | 37018 ft | 508 kts | 90° |
| 2026-05-05 11:19 | 44.08272 | -157.46381 | 37036 ft | 508 kts | 91° |
| 2026-05-05 11:19 | 44.08479 | -157.36549 | 37051 ft | 508 kts | 91° |
| 2026-05-05 11:20 | 44.08678 | -157.26707 | 37046 ft | 509 kts | 91° |
| 2026-05-05 11:20 | 44.08867 | -157.16945 | 37035 ft | 508 kts | 91° |
| 2026-05-05 11:21 | 44.09050 | -157.07103 | 37051 ft | 508 kts | 91° |
| 2026-05-05 11:21 | 44.09223 | -156.97270 | 37052 ft | 508 kts | 91° |
| 2026-05-05 11:22 | 44.09388 | -156.87434 | 37060 ft | 508 kts | 91° |
| 2026-05-05 11:22 | 44.09545 | -156.77599 | 37061 ft | 508 kts | 91° |
| 2026-05-05 11:23 | 44.09693 | -156.67756 | 37068 ft | 508 kts | 91° |
| 2026-05-05 11:23 | 44.09832 | -156.57985 | 37068 ft | 508 kts | 91° |
| 2026-05-05 11:24 | 44.09963 | -156.48144 | 37073 ft | 508 kts | 91° |
| 2026-05-05 11:24 | 44.10086 | -156.38310 | 37056 ft | 508 kts | 91° |
| 2026-05-05 11:25 | 44.10201 | -156.28472 | 37068 ft | 508 kts | 91° |
| 2026-05-05 11:25 | 44.10306 | -156.18644 | 37089 ft | 507 kts | 91° |
| 2026-05-05 11:26 | 44.10404 | -156.08821 | 37082 ft | 508 kts | 91° |
| 2026-05-05 11:26 | 44.10492 | -155.99060 | 37088 ft | 508 kts | 91° |
| 2026-05-05 11:27 | 44.10573 | -155.89239 | 37091 ft | 508 kts | 91° |
| 2026-05-05 11:27 | 44.10645 | -155.79408 | 37095 ft | 508 kts | 91° |
| 2026-05-05 11:28 | 44.10709 | -155.69576 | 37110 ft | 508 kts | 92° |
| 2026-05-05 11:28 | 44.10764 | -155.59745 | 37101 ft | 508 kts | 92° |
| 2026-05-05 11:29 | 44.10812 | -155.49916 | 37109 ft | 508 kts | 92° |
| 2026-05-05 11:29 | 44.10850 | -155.40092 | 37114 ft | 508 kts | 92° |
| 2026-05-05 11:30 | 44.10876 | -155.31930 | 37114 ft | 508 kts | 92° |
| 2026-05-05 11:30 | 44.10899 | -155.22095 | 37120 ft | 507 kts | 92° |
| 2026-05-05 11:31 | 44.10914 | -155.12271 | 37108 ft | 507 kts | 92° |
| 2026-05-05 11:31 | 44.10920 | -155.02449 | 37121 ft | 507 kts | 92° |
| 2026-05-05 11:32 | 44.10918 | -154.92634 | 37136 ft | 507 kts | 92° |
| 2026-05-05 11:32 | 44.10907 | -154.82874 | 37129 ft | 508 kts | 92° |
| 2026-05-05 11:33 | 44.10888 | -154.73046 | 37127 ft | 508 kts | 92° |
| 2026-05-05 11:33 | 44.10861 | -154.63231 | 37132 ft | 507 kts | 92° |
| 2026-05-05 11:34 | 44.10825 | -154.53411 | 37140 ft | 507 kts | 93° |
| 2026-05-05 11:34 | 44.10781 | -154.43592 | 37138 ft | 507 kts | 93° |
| 2026-05-05 11:35 | 44.10729 | -154.33831 | 37127 ft | 507 kts | 93° |
| 2026-05-05 11:35 | 44.10668 | -154.24024 | 37149 ft | 507 kts | 93° |
| 2026-05-05 11:36 | 44.10599 | -154.14216 | 37153 ft | 507 kts | 93° |
| 2026-05-05 11:36 | 44.10521 | -154.04421 | 37160 ft | 507 kts | 93° |
| 2026-05-05 11:37 | 44.10435 | -153.94608 | 37160 ft | 507 kts | 93° |
| 2026-05-05 11:37 | 44.10341 | -153.84795 | 37159 ft | 507 kts | 93° |
| 2026-05-05 11:38 | 44.10238 | -153.74992 | 37169 ft | 507 kts | 93° |
| 2026-05-05 11:38 | 44.10127 | -153.65180 | 37168 ft | 507 kts | 94° |
| 2026-05-05 11:39 | 44.10008 | -153.55423 | 37171 ft | 507 kts | 94° |
| 2026-05-05 11:39 | 44.09880 | -153.45605 | 37166 ft | 507 kts | 94° |
| 2026-05-05 11:40 | 44.09744 | -153.35802 | 37177 ft | 507 kts | 94° |
| 2026-05-05 11:40 | 44.09599 | -153.25991 | 37183 ft | 507 kts | 94° |
| 2026-05-05 11:41 | 44.09446 | -153.16190 | 37184 ft | 507 kts | 94° |
| 2026-05-05 11:41 | 44.09284 | -153.06376 | 37173 ft | 507 kts | 94° |
| 2026-05-05 11:42 | 44.09115 | -152.96578 | 37193 ft | 506 kts | 94° |
| 2026-05-05 11:42 | 44.08938 | -152.86851 | 37186 ft | 506 kts | 94° |
| 2026-05-05 11:43 | 44.08752 | -152.77067 | 37197 ft | 506 kts | 94° |
| 2026-05-05 11:43 | 44.08557 | -152.67296 | 37195 ft | 505 kts | 94° |
| 2026-05-05 11:44 | 44.08355 | -152.57536 | 37199 ft | 505 kts | 95° |
| 2026-05-05 11:44 | 44.08144 | -152.47771 | 37199 ft | 505 kts | 95° |
| 2026-05-05 11:45 | 44.07925 | -152.38003 | 37200 ft | 505 kts | 95° |
| 2026-05-05 11:45 | 44.07698 | -152.28247 | 37188 ft | 504 kts | 95° |
| 2026-05-05 11:46 | 44.07462 | -152.18494 | 37208 ft | 504 kts | 95° |
| 2026-05-05 11:46 | 44.07220 | -152.08791 | 37219 ft | 504 kts | 95° |
| 2026-05-05 11:47 | 44.06967 | -151.99027 | 37210 ft | 504 kts | 95° |
| 2026-05-05 11:47 | 44.06707 | -151.89285 | 37195 ft | 504 kts | 95° |
| 2026-05-05 11:48 | 44.06302 | -151.74696 | 37224 ft | 503 kts | 95° |
| 2026-05-05 11:48 | 44.06023 | -151.65029 | 37227 ft | 503 kts | 96° |
| 2026-05-05 11:49 | 44.05735 | -151.55308 | 37227 ft | 503 kts | 96° |
| 2026-05-05 11:49 | 44.05438 | -151.45587 | 37215 ft | 503 kts | 96° |
| 2026-05-05 11:50 | 44.05133 | -151.35864 | 37235 ft | 503 kts | 96° |
| 2026-05-05 11:50 | 44.04822 | -151.26215 | 37242 ft | 503 kts | 96° |
| 2026-05-05 11:51 | 44.04501 | -151.16510 | 37243 ft | 502 kts | 96° |
| 2026-05-05 11:51 | 44.04172 | -151.06812 | 37218 ft | 502 kts | 96° |
| 2026-05-05 11:52 | 44.03835 | -150.97125 | 37246 ft | 501 kts | 96° |
| 2026-05-05 11:52 | 44.03491 | -150.87457 | 37247 ft | 500 kts | 96° |
| 2026-05-05 11:53 | 44.03138 | -150.77799 | 37245 ft | 500 kts | 96° |
| 2026-05-05 11:53 | 44.02780 | -150.68195 | 37240 ft | 500 kts | 97° |
| 2026-05-05 11:54 | 44.02412 | -150.58544 | 37251 ft | 500 kts | 97° |
| 2026-05-05 11:54 | 44.02036 | -150.48901 | 37252 ft | 500 kts | 97° |
| 2026-05-05 11:55 | 44.01651 | -150.39263 | 37255 ft | 500 kts | 97° |
| 2026-05-05 11:55 | 44.01259 | -150.29634 | 37257 ft | 499 kts | 97° |
| 2026-05-05 11:56 | 44.00859 | -150.19993 | 37255 ft | 498 kts | 97° |
| 2026-05-05 11:56 | 44.00453 | -150.10443 | 37258 ft | 497 kts | 97° |
| 2026-05-05 11:57 | 44.00040 | -150.00856 | 37263 ft | 497 kts | 98° |
| 2026-05-05 11:57 | 43.99557 | -149.91273 | 37262 ft | 496 kts | 99° |
| 2026-05-05 11:58 | 43.99002 | -149.81708 | 37262 ft | 495 kts | 99° |
| 2026-05-05 11:58 | 43.98443 | -149.72237 | 37272 ft | 495 kts | 99° |
| 2026-05-05 11:59 | 43.97884 | -149.62703 | 37272 ft | 494 kts | 99° |
| 2026-05-05 11:59 | 43.97324 | -149.53183 | 37272 ft | 494 kts | 99° |
| 2026-05-05 12:00 | 43.96757 | -149.43667 | 37263 ft | 494 kts | 99° |
| 2026-05-05 12:00 | 43.96185 | -149.34215 | 37276 ft | 494 kts | 99° |
| 2026-05-05 12:01 | 43.95602 | -149.24712 | 37283 ft | 494 kts | 99° |
| 2026-05-05 12:01 | 43.95011 | -149.15205 | 37280 ft | 494 kts | 99° |
| 2026-05-05 12:02 | 43.94411 | -149.05703 | 37270 ft | 494 kts | 99° |
| 2026-05-05 12:02 | 43.93805 | -148.96219 | 37276 ft | 493 kts | 99° |
| 2026-05-05 12:03 | 43.93191 | -148.86733 | 37284 ft | 493 kts | 99° |
| 2026-05-05 12:03 | 43.92569 | -148.77244 | 37286 ft | 494 kts | 99° |
| 2026-05-05 12:04 | 43.91943 | -148.67818 | 37285 ft | 494 kts | 99° |
| 2026-05-05 12:04 | 43.91305 | -148.58334 | 37281 ft | 494 kts | 100° |
| 2026-05-05 12:05 | 43.90658 | -148.48835 | 37287 ft | 493 kts | 100° |
| 2026-05-05 12:05 | 43.90005 | -148.39361 | 37291 ft | 493 kts | 100° |
| 2026-05-05 12:06 | 43.89344 | -148.29884 | 37291 ft | 493 kts | 100° |
| 2026-05-05 12:06 | 43.88680 | -148.20479 | 37288 ft | 493 kts | 100° |
| 2026-05-05 12:07 | 43.88004 | -148.11026 | 37294 ft | 493 kts | 100° |
| 2026-05-05 12:07 | 43.87321 | -148.01571 | 37294 ft | 493 kts | 100° |
| 2026-05-05 12:08 | 43.86629 | -147.92117 | 37293 ft | 493 kts | 100° |
| 2026-05-05 12:08 | 43.85930 | -147.82666 | 37282 ft | 493 kts | 100° |
| 2026-05-05 12:09 | 43.85228 | -147.73279 | 37296 ft | 492 kts | 100° |
| 2026-05-05 12:09 | 43.84514 | -147.63841 | 37296 ft | 492 kts | 101° |
| 2026-05-05 12:10 | 43.83791 | -147.54397 | 37299 ft | 492 kts | 101° |
| 2026-05-05 12:10 | 43.83061 | -147.44954 | 37280 ft | 492 kts | 101° |
| 2026-05-05 12:11 | 43.82324 | -147.35525 | 37297 ft | 492 kts | 101° |
| 2026-05-05 12:11 | 43.81583 | -147.26152 | 37307 ft | 492 kts | 101° |
| 2026-05-05 12:12 | 43.80830 | -147.16727 | 37302 ft | 492 kts | 101° |
| 2026-05-05 12:12 | 43.80070 | -147.07308 | 37289 ft | 492 kts | 101° |
| 2026-05-05 12:13 | 43.79304 | -146.97905 | 37299 ft | 491 kts | 101° |
| 2026-05-05 12:13 | 43.78529 | -146.88505 | 37307 ft | 491 kts | 101° |
| 2026-05-05 12:14 | 43.77747 | -146.79105 | 37297 ft | 491 kts | 101° |
| 2026-05-05 12:14 | 43.76963 | -146.69776 | 37298 ft | 491 kts | 102° |
| 2026-05-05 12:15 | 43.76166 | -146.60386 | 37302 ft | 490 kts | 102° |
| 2026-05-05 12:15 | 43.75362 | -146.51012 | 37307 ft | 490 kts | 102° |
| 2026-05-05 12:16 | 43.74689 | -146.43237 | 37309 ft | 490 kts | 102° |
| 2026-05-05 12:16 | 43.73738 | -146.32352 | 37307 ft | 490 kts | 102° |
| 2026-05-05 12:17 | 43.73052 | -146.24571 | 37303 ft | 489 kts | 102° |
| 2026-05-05 12:17 | 43.72222 | -146.15240 | 37310 ft | 489 kts | 102° |
| 2026-05-05 12:18 | 43.71385 | -146.05912 | 37307 ft | 489 kts | 102° |
| 2026-05-05 12:18 | 43.70538 | -145.96572 | 37310 ft | 489 kts | 102° |
| 2026-05-05 12:19 | 43.69684 | -145.87234 | 37289 ft | 489 kts | 102° |
| 2026-05-05 12:19 | 43.68825 | -145.77924 | 37308 ft | 488 kts | 102° |
| 2026-05-05 12:20 | 43.67957 | -145.68608 | 37313 ft | 488 kts | 102° |
| 2026-05-05 12:20 | 43.67088 | -145.59370 | 37312 ft | 488 kts | 102° |
| 2026-05-05 12:21 | 43.66206 | -145.50067 | 37290 ft | 488 kts | 102° |
| 2026-05-05 12:21 | 43.65318 | -145.40780 | 37311 ft | 487 kts | 102° |
| 2026-05-05 12:22 | 43.64421 | -145.31488 | 37321 ft | 488 kts | 103° |
| 2026-05-05 12:22 | 43.63518 | -145.22211 | 37325 ft | 488 kts | 103° |
| 2026-05-05 12:23 | 43.62606 | -145.12920 | 37316 ft | 488 kts | 103° |
| 2026-05-05 12:23 | 43.61688 | -145.03645 | 37309 ft | 488 kts | 103° |
| 2026-05-05 12:24 | 43.60762 | -144.94371 | 37321 ft | 488 kts | 103° |
| 2026-05-05 12:24 | 43.59832 | -144.85134 | 37323 ft | 488 kts | 103° |
| 2026-05-05 12:25 | 43.58888 | -144.75846 | 37321 ft | 488 kts | 103° |
| 2026-05-05 12:25 | 43.57939 | -144.66566 | 37320 ft | 489 kts | 103° |
| 2026-05-05 12:26 | 43.56981 | -144.57285 | 37321 ft | 489 kts | 103° |
| 2026-05-05 12:26 | 43.56015 | -144.48005 | 37321 ft | 489 kts | 103° |
| 2026-05-05 12:27 | 43.55047 | -144.38775 | 37321 ft | 489 kts | 103° |
| 2026-05-05 12:27 | 43.54068 | -144.29512 | 37307 ft | 488 kts | 103° |
| 2026-05-05 12:28 | 43.53079 | -144.20237 | 37318 ft | 488 kts | 103° |
| 2026-05-05 12:28 | 43.52083 | -144.10965 | 37313 ft | 488 kts | 103° |
| 2026-05-05 12:29 | 43.51080 | -144.01703 | 37321 ft | 488 kts | 103° |
| 2026-05-05 12:29 | 43.50078 | -143.92515 | 37300 ft | 488 kts | 103° |
| 2026-05-05 12:30 | 43.49062 | -143.83276 | 37320 ft | 488 kts | 103° |
| 2026-05-05 12:30 | 43.48039 | -143.74038 | 37325 ft | 488 kts | 104° |
| 2026-05-05 12:31 | 43.47006 | -143.64788 | 37324 ft | 488 kts | 104° |
| 2026-05-05 12:31 | 43.45967 | -143.55550 | 37295 ft | 488 kts | 104° |
| 2026-05-05 12:32 | 43.44920 | -143.46307 | 37320 ft | 488 kts | 104° |
| 2026-05-05 12:32 | 43.43872 | -143.37131 | 37326 ft | 488 kts | 104° |
| 2026-05-05 12:33 | 43.42808 | -143.27877 | 37326 ft | 489 kts | 104° |
| 2026-05-05 12:33 | 43.41737 | -143.18635 | 37329 ft | 489 kts | 104° |
| 2026-05-05 12:34 | 43.40659 | -143.09396 | 37317 ft | 488 kts | 104° |
| 2026-05-05 12:34 | 43.39582 | -143.00229 | 37328 ft | 488 kts | 104° |
| 2026-05-05 12:35 | 43.38490 | -142.91004 | 37328 ft | 489 kts | 104° |
| 2026-05-05 12:35 | 43.37391 | -142.81786 | 37329 ft | 489 kts | 104° |
| 2026-05-05 12:36 | 43.36283 | -142.72564 | 37334 ft | 488 kts | 104° |
| 2026-05-05 12:36 | 43.35177 | -142.63412 | 37330 ft | 488 kts | 104° |
| 2026-05-05 12:37 | 43.34056 | -142.54211 | 37327 ft | 489 kts | 104° |
| 2026-05-05 12:37 | 43.32927 | -142.44997 | 37331 ft | 489 kts | 104° |
| 2026-05-05 12:38 | 43.31792 | -142.35803 | 37318 ft | 488 kts | 104° |
| 2026-05-05 12:38 | 43.30649 | -142.26611 | 37325 ft | 488 kts | 104° |
| 2026-05-05 12:39 | 43.29501 | -142.17433 | 37329 ft | 487 kts | 104° |
| 2026-05-05 12:39 | 43.28345 | -142.08265 | 37328 ft | 487 kts | 104° |
| 2026-05-05 12:40 | 43.27184 | -141.99108 | 37310 ft | 486 kts | 104° |
| 2026-05-05 12:40 | 43.26017 | -141.89969 | 37324 ft | 486 kts | 104° |
| 2026-05-05 12:41 | 43.24848 | -141.80878 | 37326 ft | 486 kts | 105° |
| 2026-05-05 12:41 | 43.23666 | -141.71744 | 37323 ft | 486 kts | 105° |
| 2026-05-05 12:42 | 43.22478 | -141.62621 | 37314 ft | 486 kts | 105° |
| 2026-05-05 12:42 | 43.21283 | -141.53498 | 37322 ft | 486 kts | 105° |
| 2026-05-05 12:43 | 43.20080 | -141.44380 | 37327 ft | 486 kts | 105° |
| 2026-05-05 12:43 | 43.18870 | -141.35265 | 37326 ft | 486 kts | 105° |
| 2026-05-05 12:44 | 43.17652 | -141.26152 | 37303 ft | 486 kts | 105° |
| 2026-05-05 12:44 | 43.16426 | -141.17036 | 37324 ft | 486 kts | 105° |
| 2026-05-05 12:45 | 43.15196 | -141.07942 | 37327 ft | 486 kts | 105° |
| 2026-05-05 12:45 | 43.13964 | -140.98893 | 37326 ft | 486 kts | 105° |
| 2026-05-05 12:46 | 43.12718 | -140.89799 | 37324 ft | 486 kts | 105° |
| 2026-05-05 12:46 | 43.11463 | -140.80696 | 37320 ft | 486 kts | 105° |
| 2026-05-05 12:47 | 43.10202 | -140.71603 | 37321 ft | 486 kts | 105° |
| 2026-05-05 12:47 | 43.08933 | -140.62510 | 37317 ft | 486 kts | 105° |
| 2026-05-05 12:48 | 43.07658 | -140.53427 | 37321 ft | 486 kts | 105° |
| 2026-05-05 12:48 | 43.06376 | -140.44352 | 37316 ft | 486 kts | 105° |
| 2026-05-05 12:49 | 43.05087 | -140.35282 | 37322 ft | 486 kts | 105° |
| 2026-05-05 12:49 | 43.03799 | -140.26271 | 37321 ft | 486 kts | 105° |
| 2026-05-05 12:50 | 43.02494 | -140.17196 | 37321 ft | 486 kts | 105° |
| 2026-05-05 12:50 | 43.01181 | -140.08118 | 37317 ft | 486 kts | 105° |
| 2026-05-05 12:51 | 42.99864 | -139.99060 | 37322 ft | 485 kts | 105° |
| 2026-05-05 12:51 | 42.98514 | -139.90083 | 37321 ft | 485 kts | 106° |
| 2026-05-05 12:52 | 42.97121 | -139.81006 | 37320 ft | 485 kts | 106° |
| 2026-05-05 12:52 | 42.95743 | -139.72060 | 37318 ft | 484 kts | 106° |
| 2026-05-05 12:53 | 42.94357 | -139.63076 | 37321 ft | 482 kts | 106° |
| 2026-05-05 12:53 | 42.92971 | -139.54134 | 37316 ft | 481 kts | 106° |
| 2026-05-05 12:54 | 42.90888 | -139.40787 | 37318 ft | 480 kts | 106° |
| 2026-05-05 12:55 | 42.89492 | -139.31904 | 37310 ft | 478 kts | 107° |
| 2026-05-05 12:55 | 42.88092 | -139.23043 | 37312 ft | 478 kts | 107° |
| 2026-05-05 12:56 | 42.86684 | -139.14185 | 37315 ft | 477 kts | 107° |
| 2026-05-05 12:56 | 42.85271 | -139.05334 | 37315 ft | 478 kts | 107° |
| 2026-05-05 12:57 | 42.83849 | -138.96473 | 37316 ft | 477 kts | 107° |
| 2026-05-05 12:57 | 42.82427 | -138.87660 | 37305 ft | 476 kts | 107° |
| 2026-05-05 12:58 | 42.81007 | -138.78908 | 37312 ft | 475 kts | 107° |
| 2026-05-05 12:58 | 42.79577 | -138.70139 | 37304 ft | 474 kts | 108° |
| 2026-05-05 12:59 | 42.78142 | -138.61380 | 37297 ft | 473 kts | 107° |
| 2026-05-05 12:59 | 42.76705 | -138.52657 | 37299 ft | 472 kts | 107° |
| 2026-05-05 13:00 | 42.74783 | -138.41060 | 37303 ft | 472 kts | 108° |
| 2026-05-05 13:01 | 42.71636 | -138.22237 | 37294 ft | 472 kts | 107° |
| 2026-05-05 13:01 | 42.70169 | -138.13527 | 37294 ft | 472 kts | 107° |
| 2026-05-05 13:02 | 42.68944 | -138.06291 | 37287 ft | 472 kts | 107° |
| 2026-05-05 13:02 | 42.67465 | -137.97589 | 37292 ft | 472 kts | 107° |
| 2026-05-05 13:03 | 42.65978 | -137.88887 | 37280 ft | 472 kts | 107° |
| 2026-05-05 13:03 | 42.64487 | -137.80201 | 37292 ft | 472 kts | 107° |
| 2026-05-05 13:04 | 42.62989 | -137.71515 | 37288 ft | 472 kts | 107° |
| 2026-05-05 13:04 | 42.61492 | -137.62885 | 37286 ft | 472 kts | 107° |
| 2026-05-05 13:05 | 42.59980 | -137.54205 | 37278 ft | 472 kts | 107° |
| 2026-05-05 13:05 | 42.58464 | -137.45542 | 37276 ft | 472 kts | 107° |
| 2026-05-05 13:06 | 42.56941 | -137.36885 | 37293 ft | 471 kts | 107° |
| 2026-05-05 13:06 | 42.55424 | -137.28298 | 37291 ft | 471 kts | 107° |
| 2026-05-05 13:07 | 42.53889 | -137.19649 | 37281 ft | 471 kts | 108° |
| 2026-05-05 13:07 | 42.52352 | -137.11036 | 37279 ft | 470 kts | 108° |
| 2026-05-05 13:08 | 42.50811 | -137.02441 | 37282 ft | 469 kts | 108° |
| 2026-05-05 13:08 | 42.49266 | -136.93856 | 37278 ft | 468 kts | 108° |
| 2026-05-05 13:09 | 42.47716 | -136.85288 | 37259 ft | 467 kts | 108° |
| 2026-05-05 13:09 | 42.46177 | -136.76820 | 37272 ft | 466 kts | 108° |
| 2026-05-05 13:10 | 42.44621 | -136.68295 | 37276 ft | 465 kts | 108° |
| 2026-05-05 13:10 | 42.43061 | -136.59791 | 37274 ft | 465 kts | 108° |
| 2026-05-05 13:11 | 42.41495 | -136.51289 | 37269 ft | 465 kts | 108° |
| 2026-05-05 13:11 | 42.39934 | -136.42857 | 37264 ft | 464 kts | 108° |
| 2026-05-05 13:12 | 42.38359 | -136.34380 | 37271 ft | 464 kts | 108° |
| 2026-05-05 13:12 | 42.36778 | -136.25913 | 37266 ft | 464 kts | 108° |
| 2026-05-05 13:13 | 42.35188 | -136.17439 | 37263 ft | 465 kts | 108° |
| 2026-05-05 13:13 | 42.33593 | -136.08969 | 37257 ft | 465 kts | 108° |
| 2026-05-05 13:14 | 42.31992 | -136.00506 | 37256 ft | 465 kts | 108° |
| 2026-05-05 13:14 | 42.30383 | -135.92035 | 37253 ft | 465 kts | 108° |
| 2026-05-05 13:15 | 42.28767 | -135.83569 | 37251 ft | 465 kts | 108° |
| 2026-05-05 13:15 | 42.27154 | -135.75156 | 37252 ft | 465 kts | 108° |
| 2026-05-05 13:16 | 42.25528 | -135.66708 | 37249 ft | 465 kts | 108° |
| 2026-05-05 13:16 | 42.23896 | -135.58265 | 37239 ft | 465 kts | 108° |
| 2026-05-05 13:17 | 42.22256 | -135.49821 | 37245 ft | 465 kts | 108° |
| 2026-05-05 13:17 | 42.20610 | -135.41384 | 37233 ft | 465 kts | 108° |
| 2026-05-05 13:18 | 42.18960 | -135.32955 | 37244 ft | 465 kts | 108° |
| 2026-05-05 13:18 | 42.17312 | -135.24577 | 37237 ft | 465 kts | 108° |
| 2026-05-05 13:19 | 42.15649 | -135.16156 | 37231 ft | 465 kts | 108° |
| 2026-05-05 13:19 | 42.13979 | -135.07738 | 37222 ft | 465 kts | 108° |
| 2026-05-05 13:20 | 42.12302 | -134.99319 | 37232 ft | 465 kts | 108° |
| 2026-05-05 13:20 | 42.10620 | -134.90912 | 37228 ft | 465 kts | 108° |
| 2026-05-05 13:21 | 42.08934 | -134.82518 | 37226 ft | 465 kts | 108° |
| 2026-05-05 13:21 | 42.07240 | -134.74120 | 37222 ft | 464 kts | 108° |
| 2026-05-05 13:22 | 42.05540 | -134.65730 | 37224 ft | 464 kts | 107° |
| 2026-05-05 13:22 | 42.03838 | -134.57356 | 37217 ft | 463 kts | 107° |
| 2026-05-05 13:23 | 42.02141 | -134.49048 | 37220 ft | 463 kts | 108° |
| 2026-05-05 13:23 | 42.00430 | -134.40701 | 37218 ft | 463 kts | 108° |
| 2026-05-05 13:24 | 41.98713 | -134.32364 | 37216 ft | 462 kts | 107° |
| 2026-05-05 13:24 | 41.96994 | -134.24043 | 37211 ft | 461 kts | 107° |
| 2026-05-05 13:25 | 41.95270 | -134.15737 | 37209 ft | 461 kts | 107° |
| 2026-05-05 13:25 | 41.93541 | -134.07442 | 37210 ft | 461 kts | 108° |
| 2026-05-05 13:26 | 41.91818 | -133.99206 | 37207 ft | 460 kts | 107° |
| 2026-05-05 13:26 | 41.90079 | -133.90927 | 37201 ft | 459 kts | 107° |
| 2026-05-05 13:27 | 41.88341 | -133.82685 | 37200 ft | 458 kts | 107° |
| 2026-05-05 13:27 | 41.86599 | -133.74455 | 37201 ft | 458 kts | 107° |
| 2026-05-05 13:28 | 41.84855 | -133.66250 | 37204 ft | 457 kts | 107° |
| 2026-05-05 13:28 | 41.83105 | -133.58045 | 37196 ft | 457 kts | 107° |
| 2026-05-05 13:29 | 41.81363 | -133.49911 | 37193 ft | 457 kts | 107° |
| 2026-05-05 13:29 | 41.79601 | -133.41715 | 37194 ft | 457 kts | 107° |
| 2026-05-05 13:30 | 41.77832 | -133.33521 | 37197 ft | 457 kts | 107° |
| 2026-05-05 13:30 | 41.76058 | -133.25335 | 37187 ft | 457 kts | 107° |
| 2026-05-05 13:31 | 41.74279 | -133.17154 | 37187 ft | 457 kts | 107° |
| 2026-05-05 13:31 | 41.72507 | -133.09037 | 37187 ft | 457 kts | 107° |
| 2026-05-05 13:32 | 41.70720 | -133.00882 | 37189 ft | 456 kts | 107° |
| 2026-05-05 13:32 | 41.68929 | -132.92740 | 37175 ft | 455 kts | 107° |
| 2026-05-05 13:33 | 41.67135 | -132.84615 | 37177 ft | 455 kts | 107° |
| 2026-05-05 13:33 | 41.65339 | -132.76512 | 37177 ft | 454 kts | 107° |
| 2026-05-05 13:34 | 41.63537 | -132.68410 | 37174 ft | 454 kts | 107° |
| 2026-05-05 13:34 | 41.61733 | -132.60330 | 37169 ft | 453 kts | 107° |
| 2026-05-05 13:35 | 41.59936 | -132.52314 | 37169 ft | 453 kts | 107° |
| 2026-05-05 13:35 | 41.58122 | -132.44245 | 37168 ft | 453 kts | 107° |
| 2026-05-05 13:36 | 41.56304 | -132.36194 | 37162 ft | 453 kts | 107° |
| 2026-05-05 13:36 | 41.54481 | -132.28150 | 37167 ft | 452 kts | 107° |
| 2026-05-05 13:37 | 41.52654 | -132.20116 | 37160 ft | 452 kts | 107° |
| 2026-05-05 13:37 | 41.50825 | -132.12100 | 37160 ft | 451 kts | 107° |
| 2026-05-05 13:38 | 41.49001 | -132.04136 | 37157 ft | 451 kts | 107° |
| 2026-05-05 13:38 | 41.47164 | -131.96147 | 37157 ft | 451 kts | 107° |
| 2026-05-05 13:39 | 41.45322 | -131.88158 | 37151 ft | 450 kts | 107° |
| 2026-05-05 13:39 | 41.43474 | -131.80179 | 37152 ft | 450 kts | 107° |
| 2026-05-05 13:40 | 41.41624 | -131.72214 | 37149 ft | 450 kts | 107° |
| 2026-05-05 13:40 | 41.39779 | -131.64301 | 37155 ft | 449 kts | 107° |
| 2026-05-05 13:41 | 41.37919 | -131.56350 | 37149 ft | 449 kts | 107° |
| 2026-05-05 13:41 | 41.36055 | -131.48411 | 37146 ft | 449 kts | 107° |
| 2026-05-05 13:42 | 41.34186 | -131.40481 | 37141 ft | 449 kts | 107° |
| 2026-05-05 13:42 | 41.32309 | -131.32544 | 37149 ft | 448 kts | 107° |
| 2026-05-05 13:43 | 41.30446 | -131.24688 | 37137 ft | 448 kts | 107° |
| 2026-05-05 13:43 | 41.28564 | -131.16783 | 37139 ft | 448 kts | 107° |
| 2026-05-05 13:44 | 41.26678 | -131.08888 | 37138 ft | 448 kts | 107° |
| 2026-05-05 13:44 | 41.24786 | -131.01000 | 37146 ft | 447 kts | 107° |
| 2026-05-05 13:45 | 41.22890 | -130.93116 | 37130 ft | 447 kts | 107° |
| 2026-05-05 13:45 | 41.20987 | -130.85230 | 37138 ft | 447 kts | 107° |
| 2026-05-05 13:46 | 41.19085 | -130.77379 | 37132 ft | 447 kts | 107° |
| 2026-05-05 13:46 | 41.17187 | -130.69567 | 37139 ft | 447 kts | 107° |
| 2026-05-05 13:47 | 41.15274 | -130.61719 | 37130 ft | 447 kts | 106° |
| 2026-05-05 13:47 | 41.13352 | -130.53866 | 37135 ft | 446 kts | 107° |
| 2026-05-05 13:48 | 41.11756 | -130.47359 | 37127 ft | 446 kts | 107° |
| 2026-05-05 13:48 | 41.09514 | -130.38253 | 37127 ft | 446 kts | 107° |
| 2026-05-05 13:49 | 41.07580 | -130.30428 | 37125 ft | 447 kts | 107° |
| 2026-05-05 13:49 | 41.05956 | -130.23873 | 37128 ft | 447 kts | 107° |
| 2026-05-05 13:50 | 41.04013 | -130.16059 | 37124 ft | 447 kts | 107° |
| 2026-05-05 13:50 | 41.02063 | -130.08241 | 37121 ft | 447 kts | 107° |
| 2026-05-05 13:51 | 41.00117 | -130.00462 | 37133 ft | 447 kts | 106° |
| 2026-05-05 13:51 | 40.98086 | -129.92681 | 37124 ft | 447 kts | 107° |
| 2026-05-05 13:52 | 40.95994 | -129.84940 | 37119 ft | 446 kts | 108° |
| 2026-05-05 13:52 | 40.93901 | -129.77209 | 37118 ft | 446 kts | 108° |
| 2026-05-05 13:53 | 40.91812 | -129.69478 | 37120 ft | 446 kts | 107° |
| 2026-05-05 13:53 | 40.89739 | -129.61807 | 37114 ft | 445 kts | 107° |
| 2026-05-05 13:54 | 40.87648 | -129.54094 | 37114 ft | 445 kts | 107° |
| 2026-05-05 13:54 | 40.85552 | -129.46386 | 37116 ft | 445 kts | 108° |
| 2026-05-05 13:55 | 40.83450 | -129.38683 | 37124 ft | 445 kts | 107° |
| 2026-05-05 13:55 | 40.81348 | -129.30999 | 37115 ft | 445 kts | 107° |
| 2026-05-05 13:56 | 40.79238 | -129.23315 | 37107 ft | 445 kts | 107° |
| 2026-05-05 13:56 | 40.77125 | -129.15638 | 37110 ft | 445 kts | 107° |
| 2026-05-05 13:57 | 40.75021 | -129.08020 | 37107 ft | 445 kts | 107° |
| 2026-05-05 13:57 | 40.72895 | -129.00345 | 37122 ft | 444 kts | 107° |
| 2026-05-05 13:58 | 40.70768 | -128.92689 | 37102 ft | 444 kts | 107° |
| 2026-05-05 13:58 | 40.68651 | -128.85091 | 37106 ft | 444 kts | 107° |
| 2026-05-05 13:59 | 40.65447 | -128.73636 | 37106 ft | 444 kts | 107° |
| 2026-05-05 14:00 | 40.62232 | -128.62196 | 37102 ft | 444 kts | 107° |
| 2026-05-05 14:00 | 40.60082 | -128.54570 | 37105 ft | 444 kts | 107° |
| 2026-05-05 14:01 | 40.57929 | -128.46960 | 37112 ft | 444 kts | 107° |
| 2026-05-05 14:01 | 40.55784 | -128.39401 | 37104 ft | 444 kts | 107° |
| 2026-05-05 14:02 | 40.53620 | -128.31793 | 37099 ft | 443 kts | 107° |
| 2026-05-05 14:02 | 40.51454 | -128.24203 | 37102 ft | 443 kts | 107° |
| 2026-05-05 14:03 | 40.49284 | -128.16625 | 37112 ft | 443 kts | 107° |
| 2026-05-05 14:03 | 40.47109 | -128.09046 | 37105 ft | 443 kts | 107° |
| 2026-05-05 14:04 | 40.44946 | -128.01531 | 37100 ft | 443 kts | 107° |
| 2026-05-05 14:04 | 40.42759 | -127.93958 | 37101 ft | 443 kts | 107° |
| 2026-05-05 14:05 | 40.40572 | -127.86406 | 37111 ft | 443 kts | 107° |
| 2026-05-05 14:05 | 40.38391 | -127.78896 | 37097 ft | 442 kts | 107° |
| 2026-05-05 14:06 | 40.36198 | -127.71365 | 37095 ft | 442 kts | 107° |
| 2026-05-05 14:06 | 40.34000 | -127.63840 | 37093 ft | 442 kts | 107° |
| 2026-05-05 14:07 | 40.31796 | -127.56314 | 37100 ft | 442 kts | 107° |
| 2026-05-05 14:07 | 40.29589 | -127.48802 | 37096 ft | 442 kts | 107° |
| 2026-05-05 14:08 | 40.27378 | -127.41294 | 37087 ft | 442 kts | 107° |
| 2026-05-05 14:08 | 40.25162 | -127.33794 | 37088 ft | 442 kts | 107° |
| 2026-05-05 14:09 | 40.22937 | -127.26283 | 37086 ft | 441 kts | 107° |
| 2026-05-05 14:09 | 40.20726 | -127.18841 | 37091 ft | 442 kts | 107° |
| 2026-05-05 14:10 | 40.18492 | -127.11343 | 37087 ft | 442 kts | 107° |
| 2026-05-05 14:10 | 40.16253 | -127.03849 | 37084 ft | 442 kts | 107° |
| 2026-05-05 14:11 | 40.13968 | -126.96383 | 37100 ft | 443 kts | 108° |
| 2026-05-05 14:11 | 40.11492 | -126.89027 | 37076 ft | 444 kts | 109° |
| 2026-05-05 14:12 | 40.08964 | -126.81646 | 37078 ft | 444 kts | 109° |
| 2026-05-05 14:12 | 40.06462 | -126.74289 | 37079 ft | 443 kts | 109° |
| 2026-05-05 14:13 | 40.03967 | -126.66921 | 37087 ft | 443 kts | 108° |
| 2026-05-05 14:13 | 40.01490 | -126.59611 | 37084 ft | 443 kts | 108° |
| 2026-05-05 14:14 | 39.98998 | -126.52272 | 37081 ft | 442 kts | 109° |
| 2026-05-05 14:14 | 39.96502 | -126.44945 | 37079 ft | 442 kts | 109° |
| 2026-05-05 14:15 | 39.93998 | -126.37612 | 37085 ft | 442 kts | 108° |
| 2026-05-05 14:15 | 39.91494 | -126.30298 | 37080 ft | 442 kts | 108° |
| 2026-05-05 14:16 | 39.88987 | -126.22994 | 37076 ft | 442 kts | 109° |
| 2026-05-05 14:16 | 39.86473 | -126.15691 | 37107 ft | 442 kts | 108° |
| 2026-05-05 14:17 | 39.83957 | -126.08399 | 37080 ft | 442 kts | 108° |
| 2026-05-05 14:17 | 39.81448 | -126.01146 | 37072 ft | 442 kts | 108° |
| 2026-05-05 14:18 | 39.78923 | -125.93864 | 37070 ft | 442 kts | 108° |
| 2026-05-05 14:18 | 39.76393 | -125.86588 | 37081 ft | 442 kts | 108° |
| 2026-05-05 14:19 | 39.73853 | -125.79301 | 37066 ft | 442 kts | 108° |
| 2026-05-05 14:19 | 39.71315 | -125.72036 | 37065 ft | 442 kts | 108° |
| 2026-05-05 14:20 | 39.68767 | -125.64765 | 37063 ft | 442 kts | 108° |
| 2026-05-05 14:20 | 39.66218 | -125.57505 | 37070 ft | 442 kts | 108° |
| 2026-05-05 14:21 | 39.63680 | -125.50295 | 37056 ft | 442 kts | 108° |
| 2026-05-05 14:21 | 39.61115 | -125.43029 | 37055 ft | 441 kts | 108° |
| 2026-05-05 14:22 | 39.58568 | -125.35832 | 37064 ft | 441 kts | 108° |
| 2026-05-05 14:22 | 39.56001 | -125.28595 | 37057 ft | 442 kts | 108° |
| 2026-05-05 14:23 | 39.53430 | -125.21363 | 37050 ft | 442 kts | 108° |
| 2026-05-05 14:23 | 39.50852 | -125.14131 | 37051 ft | 441 kts | 108° |
| 2026-05-05 14:24 | 39.48273 | -125.06917 | 37079 ft | 441 kts | 108° |
| 2026-05-05 14:24 | 39.45702 | -124.99739 | 37053 ft | 442 kts | 108° |
| 2026-05-05 14:25 | 39.43114 | -124.92532 | 37048 ft | 442 kts | 108° |
| 2026-05-05 14:25 | 39.40524 | -124.85339 | 37049 ft | 441 kts | 108° |
| 2026-05-05 14:26 | 39.37927 | -124.78144 | 37058 ft | 441 kts | 108° |
| 2026-05-05 14:26 | 39.35323 | -124.70944 | 37051 ft | 442 kts | 108° |
| 2026-05-05 14:27 | 39.32713 | -124.63750 | 37046 ft | 442 kts | 108° |
| 2026-05-05 14:27 | 39.30119 | -124.56614 | 37044 ft | 442 kts | 108° |
| 2026-05-05 14:28 | 39.27501 | -124.49431 | 37046 ft | 442 kts | 108° |
| 2026-05-05 14:28 | 39.24874 | -124.42240 | 37045 ft | 442 kts | 108° |
| 2026-05-05 14:29 | 39.22247 | -124.35066 | 37054 ft | 442 kts | 108° |
| 2026-05-05 14:29 | 39.19618 | -124.27904 | 37056 ft | 442 kts | 108° |
| 2026-05-05 14:30 | 39.16996 | -124.20778 | 37065 ft | 443 kts | 108° |
| 2026-05-05 14:30 | 39.14349 | -124.13601 | 37051 ft | 443 kts | 108° |
| 2026-05-05 14:31 | 39.11693 | -124.06419 | 37050 ft | 444 kts | 108° |
| 2026-05-05 14:31 | 39.09036 | -123.99251 | 37056 ft | 444 kts | 108° |
| 2026-05-05 14:32 | 39.06368 | -123.92070 | 37054 ft | 444 kts | 108° |
| 2026-05-05 14:32 | 39.03712 | -123.84935 | 37046 ft | 445 kts | 108° |
| 2026-05-05 14:33 | 39.00871 | -123.77837 | 37046 ft | 451 kts | 114° |
| 2026-05-05 14:33 | 38.97097 | -123.71275 | 37045 ft | 462 kts | 123° |
| 2026-05-05 14:34 | 38.92569 | -123.65322 | 37041 ft | 468 kts | 127° |
| 2026-05-05 14:34 | 38.87915 | -123.59453 | 37042 ft | 469 kts | 127° |
| 2026-05-05 14:35 | 38.85592 | -123.56513 | 36798 ft | 471 kts | 127° |
| 2026-05-05 14:35 | 38.83253 | -123.53534 | 36142 ft | 474 kts | 127° |
| 2026-05-05 14:35 | 38.81702 | -123.51560 | 35668 ft | 473 kts | 127° |
| 2026-05-05 14:35 | 38.79372 | -123.48591 | 34839 ft | 473 kts | 126° |
| 2026-05-05 14:36 | 38.77043 | -123.45623 | 33980 ft | 473 kts | 126° |
| 2026-05-05 14:36 | 38.74705 | -123.42638 | 32962 ft | 475 kts | 126° |
| 2026-05-05 14:36 | 38.72356 | -123.39643 | 31975 ft | 477 kts | 127° |
| 2026-05-05 14:36 | 38.69998 | -123.36640 | 30986 ft | 479 kts | 128° |
| 2026-05-05 14:37 | 38.67637 | -123.33643 | 30297 ft | 475 kts | 128° |
| 2026-05-05 14:37 | 38.65297 | -123.30679 | 29524 ft | 472 kts | 129° |
| 2026-05-05 14:37 | 38.62968 | -123.27734 | 28785 ft | 469 kts | 129° |
| 2026-05-05 14:37 | 38.60660 | -123.24813 | 28107 ft | 464 kts | 129° |
| 2026-05-05 14:38 | 38.58371 | -123.21916 | 27446 ft | 460 kts | 129° |
| 2026-05-05 14:38 | 38.56133 | -123.19089 | 27320 ft | 445 kts | 129° |
| 2026-05-05 14:38 | 38.53961 | -123.16348 | 27120 ft | 433 kts | 129° |
| 2026-05-05 14:38 | 38.51847 | -123.13680 | 26952 ft | 422 kts | 129° |
| 2026-05-05 14:39 | 38.49771 | -123.11060 | 26457 ft | 419 kts | 129° |
| 2026-05-05 14:39 | 38.47703 | -123.08450 | 25961 ft | 416 kts | 129° |
| 2026-05-05 14:39 | 38.45654 | -123.05862 | 25484 ft | 414 kts | 129° |
| 2026-05-05 14:39 | 38.43608 | -123.03279 | 25002 ft | 413 kts | 129° |
| 2026-05-05 14:40 | 38.41565 | -123.00705 | 24499 ft | 413 kts | 129° |
| 2026-05-05 14:40 | 38.39527 | -122.98140 | 24009 ft | 412 kts | 129° |
| 2026-05-05 14:40 | 38.37486 | -122.95575 | 23483 ft | 412 kts | 130° |
| 2026-05-05 14:40 | 38.35475 | -122.93048 | 22927 ft | 410 kts | 130° |
| 2026-05-05 14:41 | 38.33447 | -122.90504 | 22410 ft | 408 kts | 130° |
| 2026-05-05 14:41 | 38.31428 | -122.87974 | 21925 ft | 406 kts | 130° |
| 2026-05-05 14:41 | 38.29420 | -122.85458 | 21427 ft | 403 kts | 130° |
| 2026-05-05 14:41 | 38.27428 | -122.82962 | 20944 ft | 401 kts | 130° |
| 2026-05-05 14:42 | 38.25439 | -122.80475 | 20459 ft | 400 kts | 130° |
| 2026-05-05 14:42 | 38.23442 | -122.78038 | 19972 ft | 395 kts | 136° |
| 2026-05-05 14:42 | 38.21049 | -122.76247 | 19493 ft | 403 kts | 158° |
| 2026-05-05 14:42 | 38.18341 | -122.75418 | 19075 ft | 399 kts | 166° |
| 2026-05-05 14:43 | 38.15662 | -122.74702 | 18631 ft | 398 kts | 165° |
| 2026-05-05 14:43 | 38.12955 | -122.73953 | 18158 ft | 398 kts | 165° |
| 2026-05-05 14:43 | 38.10243 | -122.73185 | 17638 ft | 397 kts | 165° |
| 2026-05-05 14:43 | 38.07555 | -122.72415 | 17152 ft | 396 kts | 165° |
| 2026-05-05 14:44 | 38.04870 | -122.71640 | 16668 ft | 396 kts | 165° |
| 2026-05-05 14:44 | 38.02185 | -122.70863 | 16183 ft | 395 kts | 165° |
| 2026-05-05 14:44 | 37.99503 | -122.70086 | 15710 ft | 394 kts | 164° |
| 2026-05-05 14:44 | 37.96855 | -122.69319 | 15247 ft | 387 kts | 164° |
| 2026-05-05 14:45 | 37.94262 | -122.68571 | 14784 ft | 381 kts | 164° |
| 2026-05-05 14:45 | 37.91681 | -122.67822 | 14353 ft | 378 kts | 163° |
| 2026-05-05 14:45 | 37.89261 | -122.66680 | 13885 ft | 368 kts | 143° |
| 2026-05-05 14:45 | 37.87329 | -122.64679 | 13429 ft | 355 kts | 132° |
| 2026-05-05 14:46 | 37.85484 | -122.62595 | 12975 ft | 356 kts | 134° |
| 2026-05-05 14:46 | 37.83595 | -122.60571 | 12528 ft | 356 kts | 135° |
| 2026-05-05 14:46 | 37.81694 | -122.58564 | 12077 ft | 356 kts | 135° |
| 2026-05-05 14:46 | 37.79794 | -122.56560 | 11631 ft | 356 kts | 136° |
| 2026-05-05 14:47 | 37.77924 | -122.54584 | 11358 ft | 350 kts | 135° |
| 2026-05-05 14:47 | 37.76055 | -122.52610 | 11212 ft | 341 kts | 135° |
| 2026-05-05 14:47 | 37.74261 | -122.50715 | 11079 ft | 330 kts | 135° |
| 2026-05-05 14:47 | 37.72552 | -122.48909 | 11010 ft | 318 kts | 135° |
| 2026-05-05 14:48 | 37.70897 | -122.47149 | 10995 ft | 307 kts | 135° |
| 2026-05-05 14:48 | 37.69267 | -122.45411 | 11000 ft | 306 kts | 135° |
| 2026-05-05 14:48 | 37.67637 | -122.43670 | 11001 ft | 307 kts | 135° |
| 2026-05-05 14:48 | 37.65996 | -122.41923 | 11000 ft | 308 kts | 135° |
| 2026-05-05 14:49 | 37.64361 | -122.40186 | 11006 ft | 308 kts | 135° |
| 2026-05-05 14:49 | 37.62718 | -122.38443 | 11018 ft | 309 kts | 134° |
| 2026-05-05 14:49 | 37.61091 | -122.36718 | 10909 ft | 312 kts | 134° |
| 2026-05-05 14:49 | 37.59422 | -122.34952 | 10263 ft | 309 kts | 134° |
| 2026-05-05 14:50 | 37.57794 | -122.33237 | 9570 ft | 301 kts | 135° |
| 2026-05-05 14:50 | 37.56202 | -122.31557 | 8785 ft | 297 kts | 136° |
| 2026-05-05 14:50 | 37.54644 | -122.29915 | 8283 ft | 283 kts | 136° |
| 2026-05-05 14:50 | 37.53158 | -122.28351 | 8043 ft | 282 kts | 136° |
| 2026-05-05 14:51 | 37.51717 | -122.26613 | 7311 ft | 288 kts | 122° |
| 2026-05-05 14:51 | 37.50991 | -122.24296 | 6748 ft | 286 kts | 93° |
| 2026-05-05 14:51 | 37.51219 | -122.21851 | 6312 ft | 279 kts | 69° |
| 2026-05-05 14:51 | 37.51671 | -122.19540 | 6025 ft | 268 kts | 86° |
| 2026-05-05 14:52 | 37.51286 | -122.17294 | 5909 ft | 261 kts | 116° |
| 2026-05-05 14:52 | 37.50119 | -122.15626 | 5795 ft | 251 kts | 147° |
| 2026-05-05 14:52 | 37.48570 | -122.14776 | 5708 ft | 237 kts | 167° |
| 2026-05-05 14:52 | 37.47004 | -122.14379 | 5607 ft | 222 kts | 166° |
| 2026-05-05 14:53 | 37.45726 | -122.13474 | 5451 ft | 208 kts | 132° |
| 2026-05-05 14:53 | 37.45078 | -122.11844 | 4851 ft | 217 kts | 95° |
| 2026-05-05 14:53 | 37.45316 | -122.10004 | 4378 ft | 211 kts | 58° |
| 2026-05-05 14:53 | 37.46294 | -122.08774 | 4046 ft | 198 kts | 21° |
| 2026-05-05 14:54 | 37.47595 | -122.08544 | 3704 ft | 185 kts | 348° |
| 2026-05-05 14:54 | 37.48831 | -122.08887 | 3398 ft | 179 kts | 340° |
| 2026-05-05 14:54 | 37.49832 | -122.09737 | 3152 ft | 176 kts | 306° |
| 2026-05-05 14:54 | 37.50526 | -122.11002 | 3115 ft | 177 kts | 304° |
| 2026-05-05 14:55 | 37.51205 | -122.12292 | 3045 ft | 176 kts | 301° |
| 2026-05-05 14:55 | 37.51821 | -122.13619 | 3023 ft | 174 kts | 298° |
| 2026-05-05 14:55 | 37.52403 | -122.14955 | 3023 ft | 175 kts | 297° |
| 2026-05-05 14:55 | 37.53012 | -122.16389 | 3036 ft | 193 kts | 297° |
| 2026-05-05 14:56 | 37.53649 | -122.17899 | 3020 ft | 196 kts | 297° |
| 2026-05-05 14:56 | 37.54287 | -122.19418 | 2982 ft | 196 kts | 297° |
| 2026-05-05 14:56 | 37.54923 | -122.20936 | 2699 ft | 193 kts | 297° |
| 2026-05-05 14:56 | 37.55523 | -122.22365 | 2449 ft | 176 kts | 297° |
| 2026-05-05 14:57 | 37.56068 | -122.23664 | 2213 ft | 160 kts | 297° |
| 2026-05-05 14:57 | 37.56565 | -122.24849 | 2012 ft | 150 kts | 297° |
| 2026-05-05 14:57 | 37.56745 | -122.25279 | 1942 ft | 150 kts | 296° |